Portsmouth, Virginia - KPWR: 24-hour Summary Portsmouth Weather Records Service - Portsmouth, Virginia



LOCAL CLIMATOLOGICAL DATA: This Month's Data
[updated each morning between 7AM and 9AM]
Station: Portsmouth, Virginia - KPWR Latitude: 36° 48' 04" N Longitude: 76° 19' 37" W Elevation (ground): 13 ft. Time Zone: Eastern

BE SURE TO RELOAD/REFRESH THIS SCREEN FOR DAILY UPDATES BY RIGHT-CLICKING THE BACKGROUND The data in this frame and listed below are final adjusted site data for the time period.


-----------------------------------------------------------------------------------------------------------------------------------------------------------------------------------
FRIDAY			Temp	Hi	Low	Out	Dew	Wind	Wind	Wind	Hi	Hi	Wind	Heat	THW			Rain	Heat	Cool	In 	In	In 	In 	Wind	Wind	ISS 	Arc.
Date		Time	Out	Temp	Temp	Hum	Pt.	Speed	Dir	Run	Speed	Dir	Chill	Index	Index	Bar  	Rain	Rate	D-D 	D-D 	Temp	Hum	Dew	Heat	Samp	Tx 	Recept	Int.
03/01/19	1:00 a	42.0	42.0	41.6	79	36.0	6.0	E	6.00	17.0	ENE	38.1	41.7	37.8	30.148	0.00	0.00	0.958	0.000	79.5	28	43.5	77.4	1404	1	100.0	60
03/01/19	2:00 a	41.7	42.2	41.7	83	36.9	5.0	E	5.00	12.0	E	38.4	41.5	38.2	30.138	0.00	0.00	0.971	0.000	79.2	28	43.3	77.2	1404	1	100.0	60
03/01/19	3:00 a	41.6	41.8	41.6	90	38.9	6.0	ENE	6.00	15.0	ENE	37.6	41.6	37.6	30.119	0.01	0.00	0.975	0.000	78.8	28	42.9	76.9	1405	1	100.0	60
03/01/19	4:00 a	41.6	41.7	41.6	92	39.4	6.0	ENE	6.00	15.0	ENE	37.6	41.6	37.6	30.116	0.00	0.00	0.975	0.000	78.6	28	42.8	76.7	1405	1	100.0	60
03/01/19	5:00 a	41.5	41.6	41.4	94	39.9	6.0	ENE	6.00	17.0	NNE	37.5	41.6	37.6	30.116	0.00	0.00	0.979	0.000	78.4	28	42.6	76.6	1405	1	100.0	60
03/01/19	6:00 a	41.6	41.6	41.5	94	40.0	7.0	ENE	7.00	18.0	E	37.0	41.7	37.1	30.146	0.01	0.00	0.975	0.000	78.3	28	42.5	76.5	1405	1	100.0	60
03/01/19	7:00 a	42.1	42.1	41.6	96	41.0	7.0	ENE	7.00	19.0	ENE	37.6	42.2	37.7	30.139	0.01	0.00	0.954	0.000	78.7	28	42.8	76.8	1405	1	100.0	60
03/01/19	8:00 a	42.4	42.4	42.1	97	41.6	11.0	ENE	11.00	20.0	NE	36.0	42.6	36.2	30.155	0.00	0.00	0.942	0.000	82.0	27	44.7	79.7	1405	1	100.0	60
03/01/19	9:00 a	42.6	42.6	42.4	97	41.8	10.0	NE	10.00	18.0	ENE	36.7	42.8	36.9	30.182	0.01	0.00	0.933	0.000	83.4	27	45.9	81.1	1405	1	100.0	60
03/01/19	10:00 a	43.1	43.1	42.5	97	42.3	12.0	NE	12.00	20.0	NE	36.4	43.3	36.6	30.169	0.00	0.00	0.913	0.000	82.8	27	45.4	80.5	1404	1	100.0	60
03/01/19	11:00 a	43.2	43.3	43.1	97	42.4	12.0	NE	12.00	20.0	NE	36.5	43.4	36.7	30.170	0.00	0.00	0.908	0.000	80.8	27	43.7	78.5	1405	1	100.0	60
03/01/19	12:00 p	43.2	43.3	43.1	97	42.4	12.0	ENE	12.00	19.0	NE	36.5	43.4	36.7	30.161	0.00	0.00	0.908	0.000	80.0	28	44.0	77.8	1405	1	100.0	60
03/01/19	1:00 p	43.0	43.3	42.9	97	42.2	11.0	NE	11.00	21.0	ENE	36.7	43.2	36.9	30.147	0.00	0.00	0.917	0.000	80.6	27	43.5	78.3	1405	1	100.0	60
03/01/19	2:00 p	42.4	43.0	42.4	97	41.6	11.0	NE	11.00	20.0	NNE	36.0	42.6	36.2	30.127	0.00	0.00	0.942	0.000	80.4	27	43.3	78.1	1405	1	100.0	60
03/01/19	3:00 p	42.3	42.5	42.2	98	41.8	12.0	NE	12.00	22.0	NE	35.5	42.5	35.7	30.114	0.00	0.00	0.946	0.000	80.2	27	43.2	77.9	1405	1	100.0	60
03/01/19	4:00 p	42.4	42.4	42.2	98	41.9	12.0	NE	12.00	23.0	NE	35.6	42.6	35.8	30.100	0.00	0.00	0.942	0.000	80.0	27	43.0	77.7	1405	1	100.0	60
03/01/19	5:00 p	42.4	42.4	42.3	98	41.9	12.0	NE	12.00	22.0	NNE	35.6	42.6	35.8	30.078	0.00	0.00	0.942	0.000	79.5	28	43.5	77.4	1405	1	100.0	60
03/01/19	6:00 p	42.5	42.5	42.4	99	42.2	11.0	NE	11.00	20.0	NE	36.1	42.7	36.3	30.071	0.00	0.00	0.938	0.000	79.3	28	43.4	77.2	1405	1	100.0	60
03/01/19	7:00 p	43.0	43.0	42.5	99	42.7	11.0	ENE	11.00	23.0	NE	36.7	43.3	37.0	30.064	0.01	0.00	0.917	0.000	79.5	28	43.5	77.4	1405	1	100.0	60
03/01/19	8:00 p	43.5	43.5	43.0	99	43.2	7.0	NE	7.00	17.0	E	39.4	43.8	39.7	30.056	0.10	0.30	0.896	0.000	80.7	28	44.6	78.5	1405	1	100.0	60
03/01/19	9:00 p	43.5	43.6	43.4	99	43.2	7.0	NNW	7.00	17.0	NE	39.4	43.8	39.7	30.038	0.15	0.44	0.896	0.000	81.3	28	45.1	79.1	1404	1	100.0	60
03/01/19	10:00 p	42.5	43.5	42.5	99	42.2	10.0	NNE	10.00	21.0	NW	36.6	42.7	36.8	30.008	0.10	0.18	0.938	0.000	81.9	27	44.6	79.6	1405	1	100.0	60
03/01/19	11:00 p	41.4	42.5	41.4	99	41.1	10.0	NE	10.00	22.0	NNE	35.3	41.6	35.5	29.984	0.10	0.28	0.983	0.000	81.5	27	44.3	79.2	1405	1	100.0	60
03/02/19	12:00 a	41.2	41.5	41.2	99	40.9	7.0	NNW	7.00	17.0	NNW	36.5	41.4	36.7	29.975	0.00	0.00	0.992	0.000	81.0	28	44.8	78.8	1405	1	100.0	60
SATURDAY		Temp	Hi	Low	Out	Dew	Wind	Wind	Wind	Hi	Hi	Wind	Heat	THW			Rain	Heat	Cool	In 	In	In 	In 	Wind	Wind	ISS 	Arc.
Date		Time	Out	Temp	Temp	Hum	Pt.	Speed	Dir	Run	Speed	Dir	Chill	Index	Index	Bar  	Rain	Rate	D-D 	D-D 	Temp	Hum	Dew	Heat	Samp	Tx 	Recept	Int.
03/02/19	1:00 a	41.1	41.4	41.1	99	40.8	7.0	NW	7.00	17.0	NW	36.4	41.3	36.6	29.968	0.01	0.00	0.996	0.000	79.1	28	43.2	77.1	1404	1	100.0	60
03/02/19	2:00 a	40.6	41.1	40.6	99	40.3	10.0	NW	10.00	18.0	NW	34.3	40.8	34.5	29.970	0.00	0.00	1.017	0.000	77.7	29	42.9	76.2	1405	1	100.0	60
03/02/19	3:00 a	40.1	40.6	40.1	99	39.8	10.0	NW	10.00	19.0	NNW	33.7	40.3	33.9	29.977	0.00	0.00	1.038	0.000	77.6	29	42.8	76.1	1405	1	100.0	60
03/02/19	4:00 a	39.9	40.2	39.9	99	39.6	10.0	NW	10.00	17.0	NW	33.5	40.1	33.7	29.980	0.00	0.00	1.046	0.000	77.4	29	42.6	76.0	1405	1	100.0	60
03/02/19	5:00 a	39.3	39.9	39.3	99	39.0	10.0	NW	10.00	19.0	NNW	32.8	39.5	33.0	29.998	0.00	0.00	1.071	0.000	77.2	29	42.5	75.9	1405	1	100.0	60
03/02/19	6:00 a	38.8	39.3	38.8	99	38.5	7.0	NW	7.00	16.0	NNW	33.7	38.9	33.8	30.006	0.00	0.00	1.092	0.000	77.3	29	42.6	76.0	1404	1	100.0	60
03/02/19	7:00 a	38.5	38.8	38.5	99	38.2	10.0	NW	10.00	18.0	NNW	31.8	38.6	31.9	30.024	0.00	0.00	1.104	0.000	78.4	29	43.5	76.7	1405	1	100.0	60
03/02/19	8:00 a	38.5	38.5	38.4	99	38.2	6.0	WNW	6.00	16.0	NW	34.0	38.6	34.1	30.055	0.00	0.00	1.104	0.000	79.5	28	43.5	77.4	1405	1	100.0	60
03/02/19	9:00 a	38.7	38.7	38.5	99	38.4	6.0	WNW	6.00	15.0	NW	34.2	38.8	34.3	30.076	0.00	0.00	1.096	0.000	81.9	27	44.6	79.6	1405	1	100.0	60
03/02/19	10:00 a	39.2	39.2	38.7	99	38.9	7.0	WNW	7.00	18.0	NW	34.2	39.4	34.4	30.078	0.00	0.00	1.075	0.000	81.8	27	44.5	79.5	1405	1	100.0	60
03/02/19	11:00 a	39.8	39.8	39.1	99	39.5	6.0	WNW	6.00	14.0	NW	35.5	40.0	35.7	30.088	0.00	0.00	1.050	0.000	79.9	28	43.9	77.7	1405	1	100.0	60
03/02/19	12:00 p	41.0	41.0	39.8	98	40.5	7.0	WNW	7.00	17.0	WNW	36.3	41.2	36.5	30.078	0.00	0.00	1.000	0.000	80.0	28	44.0	77.8	1405	1	100.0	60
03/02/19	1:00 p	43.2	43.2	41.0	95	41.9	7.0	WNW	7.00	16.0	NNW	39.0	43.3	39.1	30.075	0.00	0.00	0.908	0.000	80.6	28	44.5	78.4	1405	1	100.0	60
03/02/19	2:00 p	45.1	45.2	43.2	89	42.1	7.0	NNW	7.00	17.0	WNW	41.3	45.2	41.4	30.083	0.00	0.00	0.829	0.000	82.6	28	46.2	80.4	1405	1	100.0	60
03/02/19	3:00 p	45.5	45.6	45.0	83	40.6	10.0	NW	10.00	19.0	NNW	40.1	45.4	40.0	30.081	0.00	0.00	0.813	0.000	84.0	28	47.4	82.0	1405	1	100.0	60
03/02/19	4:00 p	45.7	46.0	45.5	82	40.5	7.0	NNW	7.00	18.0	NNW	42.0	45.6	41.9	30.064	0.00	0.00	0.804	0.000	84.2	28	47.6	82.2	1405	1	100.0	60
03/02/19	5:00 p	44.8	45.8	44.7	84	40.3	6.0	NW	6.00	15.0	NW	41.5	44.7	41.4	30.069	0.00	0.00	0.842	0.000	83.7	28	47.1	81.6	1405	1	100.0	60
03/02/19	6:00 p	44.7	44.8	44.6	85	40.5	4.0	NW	4.00	7.0	WSW	42.7	44.6	42.6	30.105	0.00	0.00	0.846	0.000	82.2	28	45.8	80.0	1404	1	100.0	60
03/02/19	7:00 p	44.6	44.7	44.6	86	40.7	0.0	W	0.00	6.0	W	44.6	44.5	44.5	30.119	0.00	0.00	0.850	0.000	81.4	29	46.1	79.3	1405	1	100.0	60
03/02/19	8:00 p	44.5	44.7	44.5	86	40.6	5.0	NW	5.00	12.0	ENE	41.8	44.4	41.7	30.113	0.00	0.00	0.854	0.000	82.9	28	46.4	80.7	1405	1	100.0	60
03/02/19	9:00 p	43.7	44.5	43.6	87	40.1	4.0	NE	4.00	11.0	ENE	41.6	43.7	41.6	30.144	0.00	0.00	0.887	0.000	82.6	28	46.2	80.4	1405	1	100.0	60
03/02/19	10:00 p	41.4	43.6	41.4	90	38.7	4.0	SSE	4.00	10.0	SSE	38.9	41.3	38.8	30.138	0.00	0.00	0.983	0.000	82.1	28	45.8	79.9	1405	1	100.0	60
03/02/19	11:00 p	40.2	41.4	40.2	93	38.3	4.0	SSE	4.00	10.0	SSE	37.5	40.2	37.5	30.148	0.00	0.00	1.033	0.000	81.6	28	45.3	79.4	1405	1	100.0	60
03/03/19	12:00 a	38.7	40.2	38.6	93	36.9	0.0	SSE	0.00	4.0	SSE	38.7	38.7	38.7	30.141	0.00	0.00	1.096	0.000	82.2	28	45.8	80.0	1405	1	100.0	60
SUNDAY			Temp	Hi	Low	Out	Dew	Wind	Wind	Wind	Hi	Hi	Wind	Heat	THW			Rain	Heat	Cool	In 	In	In 	In 	Wind	Wind	ISS 	Arc.
Date		Time	Out	Temp	Temp	Hum	Pt.	Speed	Dir	Run	Speed	Dir	Chill	Index	Index	Bar  	Rain	Rate	D-D 	D-D 	Temp	Hum	Dew	Heat	Samp	Tx 	Recept	Int.
03/03/19	1:00 a	37.0	38.6	37.0	94	35.4	0.0	SSE	0.00	4.0	SSE	37.0	37.0	37.0	30.139	0.00	0.00	1.167	0.000	80.2	28	44.1	78.0	1404	1	100.0	60
03/03/19	2:00 a	36.3	37.0	36.2	95	35.0	0.0	SSE	0.00	5.0	SSE	36.3	36.3	36.3	30.139	0.00	0.00	1.196	0.000	78.4	29	43.5	76.7	1405	1	100.0	60
03/03/19	3:00 a	37.0	37.0	36.3	96	36.0	0.0	SSE	0.00	5.0	SSE	37.0	37.0	37.0	30.113	0.00	0.00	1.167	0.000	78.1	28	42.3	76.4	1404	1	100.0	60
03/03/19	4:00 a	36.8	37.2	36.8	96	35.8	0.0	SSE	0.00	7.0	SSE	36.8	36.8	36.8	30.100	0.00	0.00	1.175	0.000	77.7	28	42.0	76.2	1405	1	100.0	60
03/03/19	5:00 a	35.9	36.9	35.9	96	34.9	0.0	SSE	0.00	5.0	SSE	35.9	35.9	35.9	30.100	0.00	0.00	1.212	0.000	77.5	28	41.8	76.0	1405	1	100.0	60
03/03/19	6:00 a	36.2	36.2	35.5	97	35.4	0.0	SSE	0.00	4.0	SSE	36.2	36.2	36.2	30.116	0.00	0.00	1.200	0.000	77.4	28	41.7	76.0	1405	1	100.0	60
03/03/19	7:00 a	39.0	39.0	36.2	99	38.7	0.0	SSE	0.00	7.0	SSE	39.0	39.2	39.2	30.107	0.00	0.00	1.083	0.000	77.5	28	41.8	76.0	1405	1	100.0	60
03/03/19	8:00 a	41.3	41.3	39.0	99	41.0	4.0	SSE	4.00	7.0	SSE	38.8	41.5	39.0	30.147	0.00	0.00	0.988	0.000	78.8	28	42.9	76.9	1405	1	100.0	60
03/03/19	9:00 a	44.2	44.2	41.3	95	42.9	4.0	E	4.00	11.0	ESE	42.1	44.4	42.3	30.126	0.00	0.00	0.867	0.000	82.2	27	44.9	79.9	1405	1	100.0	60
03/03/19	10:00 a	48.1	48.1	44.2	77	41.2	7.0	E	7.00	19.0	ENE	44.9	47.9	44.7	30.096	0.00	0.00	0.704	0.000	82.7	27	45.3	80.4	1405	1	100.0	60
03/03/19	11:00 a	50.6	50.8	48.1	67	40.0	7.0	E	7.00	18.0	SSE	47.9	50.0	47.3	30.077	0.00	0.00	0.600	0.000	82.1	27	44.8	79.8	1405	1	100.0	60
03/03/19	12:00 p	50.8	50.9	50.3	69	41.0	7.0	SE	7.00	18.0	E	48.2	50.3	47.7	30.060	0.00	0.00	0.592	0.000	81.7	28	45.4	79.5	1405	1	100.0	60
03/03/19	1:00 p	50.2	50.8	50.2	77	43.3	6.0	E	6.00	18.0	SSE	47.9	50.1	47.8	30.011	0.00	0.00	0.617	0.000	81.8	28	45.5	79.6	1405	1	100.0	60
03/03/19	2:00 p	48.8	50.2	48.8	83	43.9	6.0	E	6.00	16.0	SE	46.3	48.8	46.3	29.958	0.00	0.00	0.675	0.000	81.5	28	45.2	79.3	1404	1	100.0	60
03/03/19	3:00 p	47.8	48.8	47.8	89	44.7	6.0	E	6.00	15.0	ENE	45.1	48.0	45.3	29.938	0.00	0.00	0.717	0.000	80.6	28	44.5	78.4	1405	1	100.0	60
03/03/19	4:00 p	47.7	47.9	47.5	89	44.6	5.0	E	5.00	13.0	ENE	45.5	47.9	45.7	29.894	0.00	0.00	0.721	0.000	80.2	28	44.1	78.0	1406	1	100.0	60
03/03/19	5:00 p	47.8	47.9	47.6	91	45.3	5.0	ENE	5.00	13.0	ENE	45.7	48.0	45.9	29.844	0.00	0.00	0.717	0.000	80.1	28	44.0	77.9	1404	1	100.0	60
03/03/19	6:00 p	48.1	48.2	47.8	92	45.9	6.0	ENE	6.00	15.0	ENE	45.4	48.4	45.7	29.792	0.00	0.00	0.704	0.000	79.8	29	44.7	77.7	1406	1	100.0	60
03/03/19	7:00 p	48.9	48.9	48.1	94	47.2	5.0	ENE	5.00	12.0	ENE	46.9	49.4	47.4	29.741	0.00	0.00	0.671	0.000	80.2	29	45.1	78.1	1404	1	100.0	60
03/03/19	8:00 p	49.5	49.5	48.9	94	47.8	0.0	E	0.00	6.0	E	49.5	50.0	50.0	29.705	0.00	0.00	0.646	0.000	80.6	29	45.4	78.5	1405	1	100.0	60
03/03/19	9:00 p	50.3	50.3	49.5	95	48.9	4.0	SE	4.00	7.0	S	49.2	50.8	49.7	29.658	0.00	0.00	0.613	0.000	80.3	29	45.1	78.2	1405	1	100.0	60
03/03/19	10:00 p	50.7	53.2	50.3	94	49.0	7.0	SSE	7.00	33.0	WNW	48.0	51.1	48.4	29.639	0.12	2.72	0.596	0.000	82.3	29	46.9	80.3	1405	1	100.0	60
03/03/19	11:00 p	43.8	50.6	43.7	97	43.0	14.0	NW	14.00	26.0	N	36.5	44.1	36.8	29.666	0.33	5.49	0.883	0.000	82.3	29	46.9	80.3	1405	1	100.0	60
03/04/19	12:00 a	43.6	43.8	43.5	98	43.1	7.0	ENE	7.00	17.0	NW	39.5	43.9	39.8	29.591	0.04	0.11	0.892	0.000	82.2	29	46.8	80.2	1405	1	100.0	60
MONDAY			Temp	Hi	Low	Out	Dew	Wind	Wind	Wind	Hi	Hi	Wind	Heat	THW			Rain	Heat	Cool	In 	In	In 	In 	Wind	Wind	ISS 	Arc.
Date		Time	Out	Temp	Temp	Hum	Pt.	Speed	Dir	Run	Speed	Dir	Chill	Index	Index	Bar  	Rain	Rate	D-D 	D-D 	Temp	Hum	Dew	Heat	Samp	Tx 	Recept	Int.
03/04/19	1:00 a	43.5	43.7	43.4	98	43.0	5.0	ENE	5.00	14.0	NNW	40.6	43.8	40.9	29.601	0.01	0.07	0.896	0.000	82.4	29	46.9	80.3	1403	1	100.0	60
03/04/19	2:00 a	42.4	43.5	42.4	98	41.9	13.0	NNW	13.00	24.0	WNW	35.2	42.6	35.4	29.624	0.01	0.00	0.942	0.000	82.9	29	47.4	80.8	1406	1	100.0	60
03/04/19	3:00 a	41.2	42.4	41.2	98	40.7	11.0	NNW	11.00	24.0	WNW	34.6	41.4	34.8	29.637	0.01	0.00	0.992	0.000	82.5	28	46.1	80.3	1404	1	100.0	60
03/04/19	4:00 a	40.7	41.2	40.6	98	40.2	11.0	NNW	11.00	21.0	NW	34.0	40.9	34.2	29.679	0.00	0.00	1.012	0.000	82.0	29	46.6	80.0	1405	1	100.0	60
03/04/19	5:00 a	40.1	40.6	40.0	98	39.6	11.0	NNW	11.00	21.0	NNW	33.3	40.3	33.5	29.729	0.00	0.00	1.038	0.000	82.1	29	46.7	80.1	1405	1	100.0	60
03/04/19	6:00 a	40.0	40.1	39.9	98	39.5	13.0	NW	13.00	23.0	NNW	32.5	40.2	32.7	29.775	0.00	0.00	1.042	0.000	82.3	28	45.9	80.1	1405	1	100.0	60
03/04/19	7:00 a	39.2	40.0	39.2	94	37.6	14.0	NW	14.00	27.0	NNW	31.1	39.2	31.1	29.818	0.00	0.00	1.075	0.000	80.0	29	44.9	77.9	1405	1	100.0	60
03/04/19	8:00 a	38.7	39.2	38.7	90	36.0	15.0	NNW	15.00	32.0	NW	30.2	38.6	30.1	29.854	0.00	0.00	1.096	0.000	81.5	28	45.2	79.3	1405	1	100.0	60
03/04/19	9:00 a	38.6	38.7	38.5	86	34.8	13.0	NNW	13.00	26.0	NNW	30.7	38.4	30.5	29.903	0.00	0.00	1.100	0.000	81.7	27	44.5	79.4	1405	1	100.0	60
03/04/19	10:00 a	39.6	39.6	38.6	79	33.6	14.0	NNW	14.00	25.0	WNW	31.6	39.3	31.3	29.922	0.00	0.00	1.058	0.000	81.4	27	44.2	79.1	1405	1	100.0	60
03/04/19	11:00 a	41.6	41.6	39.6	73	33.6	14.0	NNW	14.00	26.0	NNW	34.0	41.1	33.5	29.926	0.00	0.00	0.975	0.000	80.1	27	43.1	77.8	1405	1	100.0	60
03/04/19	12:00 p	42.7	42.7	41.6	69	33.2	12.0	NW	12.00	20.0	NNW	35.9	42.1	35.3	29.938	0.00	0.00	0.929	0.000	80.6	27	43.5	78.3	1404	1	100.0	60
03/04/19	1:00 p	43.8	43.8	42.6	67	33.6	12.0	NW	12.00	21.0	NW	37.2	43.2	36.6	29.928	0.00	0.00	0.883	0.000	81.7	27	44.5	79.4	1406	1	100.0	60
03/04/19	2:00 p	44.3	44.5	43.8	62	32.1	10.0	NW	10.00	18.0	N	38.7	43.5	37.9	29.931	0.00	0.00	0.863	0.000	82.6	28	46.2	80.4	1404	1	100.0	60
03/04/19	3:00 p	45.1	45.1	44.3	61	32.4	11.0	NNW	11.00	20.0	NNW	39.1	44.3	38.3	29.925	0.00	0.00	0.829	0.000	86.1	27	48.2	83.9	1405	1	100.0	60
03/04/19	4:00 p	46.0	46.0	45.0	60	32.9	7.0	NNW	7.00	18.0	NNW	42.4	45.2	41.6	29.940	0.00	0.00	0.792	0.000	86.5	26	47.5	84.0	1405	1	100.0	60
03/04/19	5:00 p	45.2	46.0	45.2	61	32.5	6.0	NNW	6.00	14.0	NNW	41.9	44.4	41.1	29.945	0.00	0.00	0.825	0.000	84.7	27	47.0	82.4	1405	1	100.0	60
03/04/19	6:00 p	45.0	45.4	45.0	63	33.2	6.0	NNW	6.00	16.0	W	41.7	44.3	41.0	29.958	0.00	0.00	0.833	0.000	84.0	27	46.4	81.8	1405	1	100.0	60
03/04/19	7:00 p	42.5	45.0	42.5	68	32.7	0.0	WSW	0.00	7.0	WNW	42.5	41.9	41.9	29.982	0.00	0.00	0.938	0.000	83.0	27	45.6	80.6	1405	1	100.0	60
03/04/19	8:00 p	40.1	42.5	40.1	75	32.8	0.0	WSW	0.00	5.0	WSW	40.1	39.6	39.6	29.997	0.00	0.00	1.038	0.000	82.0	27	44.7	79.7	1405	1	100.0	60
03/04/19	9:00 p	40.9	40.9	39.9	79	34.9	4.0	WSW	4.00	5.0	WSW	38.4	40.6	38.1	30.020	0.00	0.00	1.004	0.000	81.4	27	44.2	79.1	1405	1	100.0	60
03/04/19	10:00 p	41.4	41.4	40.9	78	35.1	0.0	ENE	0.00	7.0	ENE	41.4	41.1	41.1	30.035	0.00	0.00	0.983	0.000	82.8	27	45.4	80.5	1405	1	100.0	60
03/04/19	11:00 p	41.4	41.5	41.4	79	35.4	4.0	ESE	4.00	10.0	SSE	38.9	41.1	38.6	30.042	0.00	0.00	0.983	0.000	82.9	26	44.5	80.4	1404	1	100.0	60
03/05/19	12:00 a	39.8	41.5	39.8	79	33.8	4.0	SW	4.00	11.0	SW	37.1	39.5	36.8	30.035	0.00	0.00	1.050	0.000	82.3	27	45.0	80.0	1405	1	100.0	60
TUESDAY			Temp	Hi	Low	Out	Dew	Wind	Wind	Wind	Hi	Hi	Wind	Heat	THW			Rain	Heat	Cool	In 	In	In 	In 	Wind	Wind	ISS 	Arc.
Date		Time	Out	Temp	Temp	Hum	Pt.	Speed	Dir	Run	Speed	Dir	Chill	Index	Index	Bar  	Rain	Rate	D-D 	D-D 	Temp	Hum	Dew	Heat	Samp	Tx 	Recept	Int.
03/05/19	1:00 a	37.1	39.9	37.1	79	31.2	4.0	WSW	4.00	11.0	W	34.0	36.8	33.7	30.030	0.00	0.00	1.163	0.000	80.0	27	43.0	77.7	1403	1	100.0	60
03/05/19	2:00 a	35.7	37.1	35.6	78	29.5	4.0	WNW	4.00	7.0	WSW	32.4	35.4	32.1	30.031	0.00	0.00	1.221	0.000	79.4	27	42.5	77.2	1405	1	100.0	60
03/05/19	3:00 a	35.0	35.7	34.6	86	31.2	4.0	WNW	4.00	16.0	NNE	31.5	34.8	31.3	30.033	0.00	0.00	1.250	0.000	78.7	27	41.9	76.7	1405	1	100.0	60
03/05/19	4:00 a	37.5	37.9	35.0	71	28.9	12.0	NE	12.00	24.0	NE	29.7	36.9	29.1	30.058	0.00	0.00	1.146	0.000	78.3	27	41.6	76.5	1405	1	100.0	60
03/05/19	5:00 a	36.5	37.5	36.5	69	27.3	11.0	NE	11.00	23.0	NNE	28.9	35.9	28.3	30.080	0.00	0.00	1.188	0.000	78.7	26	40.9	76.6	1405	1	100.0	60
03/05/19	6:00 a	36.0	36.6	36.0	69	26.8	11.0	NE	11.00	21.0	NE	28.2	35.4	27.6	30.099	0.00	0.00	1.208	0.000	78.8	26	41.0	76.7	1405	1	100.0	60
03/05/19	7:00 a	35.6	36.0	35.6	68	26.1	10.0	NE	10.00	20.0	NE	28.2	35.0	27.6	30.109	0.00	0.00	1.225	0.000	78.9	25	40.1	76.6	1405	1	100.0	60
03/05/19	8:00 a	35.7	35.7	35.5	67	25.8	11.0	NE	11.00	21.0	ENE	27.9	35.1	27.3	30.080	0.00	0.00	1.221	0.000	81.7	25	42.4	79.2	1404	1	100.0	60
03/05/19	9:00 a	36.1	36.2	35.7	67	26.2	11.0	ENE	11.00	20.0	NE	28.4	35.4	27.7	30.106	0.00	0.00	1.204	0.000	82.2	24	41.8	79.6	1405	1	100.0	60
03/05/19	10:00 a	36.6	36.6	35.9	65	25.9	11.0	ENE	11.00	18.0	E	29.0	35.9	28.3	30.094	0.00	0.00	1.183	0.000	81.7	24	41.4	79.1	1405	1	100.0	60
03/05/19	11:00 a	38.4	38.4	36.6	62	26.5	7.0	ENE	7.00	16.0	NE	33.2	37.6	32.4	30.091	0.00	0.00	1.108	0.000	81.7	25	42.4	79.2	1405	1	100.0	60
03/05/19	12:00 p	38.8	38.8	38.4	61	26.5	6.0	ENE	6.00	15.0	E	34.3	38.0	33.5	30.082	0.00	0.00	1.092	0.000	80.9	25	41.8	78.3	1405	1	100.0	60
03/05/19	1:00 p	38.5	39.0	38.2	63	27.0	6.0	ENE	6.00	15.0	ENE	34.0	37.8	33.3	30.044	0.00	0.00	1.104	0.000	80.8	25	41.7	78.2	1405	1	100.0	60
03/05/19	2:00 p	38.3	38.6	38.3	65	27.6	6.0	NE	6.00	14.0	ENE	33.7	37.6	33.0	29.999	0.00	0.00	1.113	0.000	80.8	25	41.7	78.2	1405	1	100.0	60
03/05/19	3:00 p	38.7	38.7	38.3	66	28.3	6.0	ENE	6.00	14.0	NE	34.2	38.0	33.5	29.979	0.00	0.00	1.096	0.000	80.9	25	41.8	78.3	1405	1	100.0	60
03/05/19	4:00 p	39.2	39.4	38.7	66	28.8	5.0	ENE	5.00	13.0	NNE	35.5	38.5	34.8	29.967	0.00	0.00	1.075	0.000	81.5	25	42.3	79.0	1405	1	100.0	60
03/05/19	5:00 p	39.8	39.8	39.2	68	30.1	5.0	SSE	5.00	11.0	SSW	36.2	39.2	35.6	29.950	0.00	0.00	1.050	0.000	81.9	24	41.6	79.3	1405	1	100.0	60
03/05/19	6:00 p	39.3	39.9	39.3	67	29.3	4.0	E	4.00	10.0	NE	36.5	38.6	35.8	29.957	0.00	0.00	1.071	0.000	81.9	24	41.6	79.3	1405	1	100.0	60
03/05/19	7:00 p	37.6	39.3	37.5	72	29.4	4.0	ENE	4.00	5.0	ENE	34.5	37.1	34.0	29.973	0.00	0.00	1.142	0.000	82.4	24	42.0	79.8	1404	1	100.0	60
03/05/19	8:00 p	34.9	37.5	34.9	78	28.7	4.0	SE	4.00	7.0	SE	31.4	34.6	31.1	29.980	0.00	0.00	1.254	0.000	83.5	24	42.9	80.9	1405	1	100.0	60
03/05/19	9:00 p	32.9	34.9	32.9	82	28.0	4.0	SSE	4.00	10.0	SSE	29.1	32.6	28.8	29.997	0.00	0.00	1.337	0.000	83.0	24	42.5	80.3	1405	1	100.0	60
03/05/19	10:00 p	31.2	32.9	31.2	86	27.5	4.0	SSE	4.00	6.0	SSE	27.2	31.0	27.0	30.002	0.00	0.00	1.408	0.000	83.4	24	42.8	80.8	1405	1	100.0	60
03/05/19	11:00 p	30.0	31.2	30.0	88	26.9	4.0	SSE	4.00	7.0	SSE	25.8	29.8	25.6	30.001	0.00	0.00	1.458	0.000	82.1	24	41.7	79.5	1405	1	100.0	60
03/06/19	12:00 a	30.6	30.6	29.6	83	26.1	5.0	SW	5.00	14.0	W	25.4	30.4	25.2	30.016	0.00	0.00	1.433	0.000	81.0	24	40.8	78.3	1406	1	100.0	60
WEDNESDAY		Temp	Hi	Low	Out	Dew	Wind	Wind	Wind	Hi	Hi	Wind	Heat	THW			Rain	Heat	Cool	In 	In	In 	In 	Wind	Wind	ISS 	Arc.
Date		Time	Out	Temp	Temp	Hum	Pt.	Speed	Dir	Run	Speed	Dir	Chill	Index	Index	Bar  	Rain	Rate	D-D 	D-D 	Temp	Hum	Dew	Heat	Samp	Tx 	Recept	Int.
03/06/19	1:00 a	33.9	34.2	30.6	62	22.2	14.0	NNW	14.00	28.0	NNW	24.4	33.2	23.7	30.062	0.00	0.00	1.296	0.000	79.4	24	39.4	76.9	1403	1	100.0	60
03/06/19	2:00 a	32.6	33.9	32.6	56	18.6	15.0	NNW	15.00	30.0	NNW	22.4	31.8	21.6	30.096	0.00	0.00	1.350	0.000	79.0	23	38.0	76.5	1405	1	100.0	60
03/06/19	3:00 a	31.4	32.5	31.4	57	17.9	11.0	NNW	11.00	20.0	N	22.5	30.6	21.7	30.115	0.00	0.00	1.400	0.000	78.3	23	37.4	76.2	1404	1	100.0	60
03/06/19	4:00 a	30.4	31.4	30.4	56	16.6	12.0	NNW	12.00	22.0	NNW	20.8	29.7	20.1	30.132	0.00	0.00	1.442	0.000	78.1	23	37.3	76.1	1405	1	100.0	60
03/06/19	5:00 a	29.2	30.4	29.2	57	15.8	11.0	NNW	11.00	20.0	NNW	19.7	28.5	19.0	30.159	0.00	0.00	1.492	0.000	78.4	23	37.5	76.2	1405	1	100.0	60
03/06/19	6:00 a	28.5	29.2	28.5	58	15.6	10.0	NNW	10.00	19.0	NW	19.4	27.9	18.8	30.189	0.00	0.00	1.521	0.000	78.1	23	37.3	76.1	1405	1	100.0	60
03/06/19	7:00 a	28.3	28.5	28.3	56	14.6	11.0	NNW	11.00	20.0	NNW	18.6	27.6	17.9	30.212	0.00	0.00	1.529	0.000	79.1	22	37.0	76.4	1405	1	100.0	60
03/06/19	8:00 a	29.1	29.1	28.3	56	15.3	10.0	NNW	10.00	20.0	NNW	20.1	28.4	19.4	30.242	0.00	0.00	1.496	0.000	81.2	22	38.7	78.3	1405	1	100.0	60
03/06/19	9:00 a	29.7	29.7	29.1	55	15.5	12.0	NNW	12.00	21.0	NNW	19.9	29.0	19.2	30.265	0.00	0.00	1.471	0.000	83.3	21	39.3	80.4	1405	1	100.0	60
03/06/19	10:00 a	30.7	30.8	29.7	52	15.1	12.0	NNW	12.00	22.0	NNW	21.1	29.9	20.3	30.283	0.00	0.00	1.429	0.000	83.5	21	39.4	80.6	1405	1	100.0	60
03/06/19	11:00 a	31.8	31.8	30.7	52	16.2	11.0	NNW	11.00	23.0	NW	23.0	30.9	22.1	30.283	0.00	0.00	1.383	0.000	83.7	20	38.4	80.7	1405	1	100.0	60
03/06/19	12:00 p	32.8	32.8	31.8	48	15.2	11.0	NNW	11.00	21.0	NW	24.2	31.9	23.3	30.269	0.00	0.00	1.342	0.000	83.7	20	38.4	80.7	1405	1	100.0	60
03/06/19	1:00 p	34.7	34.7	32.8	51	18.4	10.0	NW	10.00	19.0	N	27.1	33.8	26.2	30.248	0.00	0.00	1.262	0.000	83.7	20	38.4	80.7	1404	1	100.0	60
03/06/19	2:00 p	36.5	36.5	34.7	44	16.6	7.0	NNW	7.00	23.0	WSW	30.9	35.4	29.8	30.221	0.00	0.00	1.188	0.000	83.7	21	39.6	80.8	1405	1	100.0	60
03/06/19	3:00 p	38.1	38.1	36.5	38	14.7	10.0	NW	10.00	21.0	NNW	31.3	36.8	30.0	30.211	0.00	0.00	1.121	0.000	86.6	20	40.7	83.3	1405	1	100.0	60
03/06/19	4:00 p	38.7	38.7	38.1	38	15.2	11.0	WNW	11.00	19.0	N	31.6	37.4	30.3	30.212	0.00	0.00	1.096	0.000	87.5	20	41.5	84.0	1405	1	100.0	60
03/06/19	5:00 p	38.6	39.0	38.6	32	11.2	11.0	W	11.00	20.0	WNW	31.5	37.1	30.0	30.228	0.00	0.00	1.100	0.000	86.5	20	40.7	83.3	1405	1	100.0	60
03/06/19	6:00 p	37.6	38.6	37.5	35	12.4	7.0	NW	7.00	22.0	WNW	32.2	36.2	30.8	30.240	0.00	0.00	1.142	0.000	86.1	21	41.6	83.0	1405	1	100.0	60
03/06/19	7:00 p	35.0	37.6	35.0	42	14.2	4.0	W	4.00	13.0	W	31.5	33.9	30.4	30.271	0.00	0.00	1.250	0.000	84.5	21	40.3	81.5	1405	1	100.0	60
03/06/19	8:00 p	33.8	35.0	33.8	44	14.2	5.0	W	5.00	14.0	WSW	29.2	32.8	28.2	30.276	0.00	0.00	1.300	0.000	82.7	21	38.8	79.8	1405	1	100.0	60
03/06/19	9:00 p	30.8	33.8	30.8	52	15.2	0.0	---	0.00	0.0	---	30.8	30.0	30.0	30.292	0.00	0.00	1.425	0.000	82.3	21	38.4	79.3	1405	1	100.0	60
03/06/19	10:00 p	28.8	30.8	28.8	60	16.6	0.0	WSW	0.00	4.0	WSW	28.8	28.2	28.2	30.298	0.00	0.00	1.508	0.000	82.6	20	37.5	79.6	1405	1	100.0	60
03/06/19	11:00 p	27.4	28.8	27.4	65	17.2	0.0	WSW	0.00	5.0	WSW	27.4	26.9	26.9	30.310	0.00	0.00	1.567	0.000	82.6	20	37.5	79.6	1404	1	100.0	60
03/07/19	12:00 a	26.7	27.4	26.7	68	17.6	0.0	WSW	0.00	5.0	WSW	26.7	26.3	26.3	30.307	0.00	0.00	1.596	0.000	81.6	21	37.9	78.6	1405	1	100.0	60
THURSDAY		Temp	Hi	Low	Out	Dew	Wind	Wind	Wind	Hi	Hi	Wind	Heat	THW			Rain	Heat	Cool	In 	In	In 	In 	Wind	Wind	ISS 	Arc.
Date		Time	Out	Temp	Temp	Hum	Pt.	Speed	Dir	Run	Speed	Dir	Chill	Index	Index	Bar  	Rain	Rate	D-D 	D-D 	Temp	Hum	Dew	Heat	Samp	Tx 	Recept	Int.
03/07/19	1:00 a	26.4	26.8	26.3	72	18.6	0.0	WSW	0.00	5.0	WSW	26.4	26.0	26.0	30.319	0.00	0.00	1.608	0.000	79.9	21	36.5	77.0	1404	1	100.0	60
03/07/19	2:00 a	26.3	26.4	26.1	71	18.2	4.0	WSW	4.00	6.0	WSW	21.5	25.9	21.1	30.316	0.00	0.00	1.613	0.000	78.7	21	35.5	76.1	1405	1	100.0	60
03/07/19	3:00 a	26.2	26.4	26.2	69	17.4	4.0	W	4.00	6.0	W	21.4	25.8	21.0	30.306	0.00	0.00	1.617	0.000	79.2	21	35.9	76.4	1405	1	100.0	60
03/07/19	4:00 a	26.6	26.6	26.1	77	20.4	4.0	W	4.00	11.0	NNE	21.8	26.2	21.4	30.310	0.00	0.00	1.600	0.000	78.3	21	35.1	76.0	1405	1	100.0	60
03/07/19	5:00 a	29.2	29.2	26.7	74	21.9	4.0	NE	4.00	10.0	ENE	24.8	28.8	24.4	30.319	0.00	0.00	1.492	0.000	78.7	21	35.5	76.1	1405	1	100.0	60
03/07/19	6:00 a	29.2	29.6	29.2	73	21.6	4.0	NE	4.00	10.0	NNE	24.8	28.8	24.4	30.347	0.00	0.00	1.492	0.000	78.2	21	35.0	76.0	1404	1	100.0	60
03/07/19	7:00 a	26.9	29.2	26.9	77	20.7	0.0	---	0.00	0.0	---	26.9	26.5	26.5	30.372	0.00	0.00	1.588	0.000	78.8	21	35.5	76.2	1405	1	100.0	60
03/07/19	8:00 a	27.5	27.5	26.7	82	22.7	4.0	S	4.00	11.0	S	22.9	27.2	22.6	30.388	0.00	0.00	1.563	0.000	79.3	21	36.0	76.5	1405	1	100.0	60
03/07/19	9:00 a	32.4	32.5	27.5	72	24.4	7.0	SSE	7.00	13.0	ESE	26.0	31.9	25.5	30.390	0.00	0.00	1.358	0.000	81.1	20	36.2	78.0	1405	1	100.0	60
03/07/19	10:00 a	36.7	36.7	32.4	51	20.3	5.0	WSW	5.00	14.0	SW	32.6	35.7	31.6	30.384	0.00	0.00	1.179	0.000	82.4	20	37.3	79.3	1405	1	100.0	60
03/07/19	11:00 a	39.5	39.5	36.8	44	19.4	6.0	WNW	6.00	16.0	W	35.2	38.3	34.0	30.366	0.00	0.00	1.063	0.000	82.8	20	37.6	79.8	1405	1	100.0	60
03/07/19	12:00 p	42.3	42.3	39.5	43	21.4	7.0	SW	7.00	17.0	WNW	37.9	41.0	36.6	30.343	0.00	0.00	0.946	0.000	83.7	20	38.4	80.7	1405	1	100.0	60
03/07/19	1:00 p	44.5	44.5	42.3	38	20.4	7.0	W	7.00	17.0	WNW	40.6	43.0	39.1	30.314	0.00	0.00	0.854	0.000	84.3	21	40.1	81.3	1405	1	100.0	60
03/07/19	2:00 p	46.3	46.3	44.4	36	20.8	7.0	WSW	7.00	19.0	SW	42.8	44.7	41.2	30.292	0.00	0.00	0.779	0.000	84.7	21	40.4	81.7	1405	1	100.0	60
03/07/19	3:00 p	46.4	47.1	46.2	33	18.8	10.0	WSW	10.00	19.0	SW	41.1	44.7	39.4	30.284	0.00	0.00	0.775	0.000	85.5	21	41.1	82.4	1405	1	100.0	60
03/07/19	4:00 p	47.2	47.3	46.4	32	18.8	7.0	W	7.00	18.0	NW	43.8	45.4	42.0	30.280	0.00	0.00	0.742	0.000	87.7	19	40.3	84.1	1405	1	100.0	60
03/07/19	5:00 p	46.7	47.4	46.7	36	21.1	6.0	W	6.00	20.0	SW	43.7	45.1	42.1	30.282	0.00	0.00	0.762	0.000	85.9	20	40.2	82.7	1404	1	100.0	60
03/07/19	6:00 p	44.3	46.7	44.3	55	29.1	5.0	ENE	5.00	12.0	E	41.5	43.3	40.5	30.302	0.00	0.00	0.863	0.000	84.8	21	40.5	81.8	1405	1	100.0	60
03/07/19	7:00 p	41.2	44.3	41.2	62	29.2	4.0	SSE	4.00	12.0	SSE	38.7	40.4	37.9	30.322	0.00	0.00	0.992	0.000	84.0	21	39.9	81.1	1405	1	100.0	60
03/07/19	8:00 p	39.0	41.2	39.0	68	29.3	0.0	SE	0.00	5.0	SE	39.0	38.4	38.4	30.340	0.00	0.00	1.083	0.000	84.4	21	40.2	81.4	1405	1	100.0	60
03/07/19	9:00 p	38.4	39.0	38.4	73	30.5	0.0	SE	0.00	5.0	SE	38.4	37.9	37.9	30.337	0.00	0.00	1.108	0.000	84.2	21	40.0	81.3	1405	1	100.0	60
03/07/19	10:00 p	38.1	38.4	38.1	76	31.2	0.0	SE	0.00	5.0	SE	38.1	37.7	37.7	30.350	0.00	0.00	1.121	0.000	83.5	21	39.4	80.6	1405	1	100.0	60
03/07/19	11:00 p	37.8	38.2	37.8	79	31.9	0.0	SE	0.00	5.0	SE	37.8	37.5	37.5	30.363	0.00	0.00	1.133	0.000	83.8	21	39.7	80.9	1405	1	100.0	60
FRIDAY			Temp	Hi	Low	Out	Dew	Wind	Wind	Wind	Hi	Hi	Wind	Heat	THW			Rain	Heat	Cool	In 	In	In 	In 	Wind	Wind	ISS 	Arc.
Date		Time	Out	Temp	Temp	Hum	Pt.	Speed	Dir	Run	Speed	Dir	Chill	Index	Index	Bar  	Rain	Rate	D-D 	D-D 	Temp	Hum	Dew	Heat	Samp	Tx 	Recept	Int.
03/08/19	1:00 a	36.9	37.3	36.9	83	32.2	0.0	SE	0.00	4.0	SE	36.9	36.7	36.7	30.352	0.00	0.00	1.171	0.000	80.8	23	39.5	78.0	1404	1	100.0	60
03/08/19	2:00 a	37.2	37.2	36.9	84	32.8	0.0	SE	0.00	5.0	SE	37.2	37.0	37.0	30.346	0.00	0.00	1.158	0.000	80.2	23	39.0	77.5	1405	1	100.0	60
03/08/19	3:00 a	37.7	37.7	37.2	86	33.9	0.0	SE	0.00	6.0	SE	37.7	37.5	37.5	30.321	0.00	0.00	1.137	0.000	79.6	23	38.5	77.0	1405	1	100.0	60
03/08/19	4:00 a	37.5	37.9	37.5	86	33.7	0.0	SE	0.00	5.0	SE	37.5	37.3	37.3	30.315	0.00	0.00	1.146	0.000	79.1	23	38.1	76.5	1405	1	100.0	60
03/08/19	5:00 a	37.6	37.6	37.3	85	33.5	0.0	SE	0.00	5.0	SE	37.6	37.4	37.4	30.332	0.00	0.00	1.142	0.000	79.2	23	38.2	76.6	1404	1	100.0	60
03/08/19	6:00 a	37.9	38.0	37.6	84	33.5	0.0	SE	0.00	4.0	SE	37.9	37.7	37.7	30.339	0.00	0.00	1.129	0.000	79.4	23	38.4	76.8	1405	1	100.0	60
03/08/19	7:00 a	38.5	38.5	37.9	82	33.5	0.0	SE	0.00	4.0	SE	38.5	38.2	38.2	30.346	0.00	0.00	1.104	0.000	79.3	23	38.3	76.7	1405	1	100.0	60
03/08/19	8:00 a	40.2	40.2	38.5	84	35.8	0.0	SE	0.00	6.0	SE	40.2	40.0	40.0	30.351	0.00	0.00	1.033	0.000	79.5	23	38.4	76.9	1405	1	100.0	60
03/08/19	9:00 a	43.5	43.5	40.2	78	37.1	4.0	SSE	4.00	10.0	SSE	41.3	43.2	41.0	30.358	0.00	0.00	0.896	0.000	82.4	23	40.9	79.7	1405	1	100.0	60
03/08/19	10:00 a	46.5	46.5	43.5	65	35.4	6.0	SSE	6.00	11.0	SSE	43.5	45.8	42.8	30.353	0.00	0.00	0.771	0.000	82.4	23	40.9	79.7	1405	1	100.0	60
03/08/19	11:00 a	45.2	46.5	45.2	59	31.7	6.0	ENE	6.00	15.0	ENE	41.9	44.4	41.1	30.353	0.00	0.00	0.825	0.000	80.8	23	39.5	78.0	1405	1	100.0	60
03/08/19	12:00 p	45.3	45.3	45.0	69	35.7	6.0	E	6.00	15.0	ENE	42.1	44.8	41.6	30.341	0.00	0.00	0.821	0.000	80.7	23	39.4	77.9	1405	1	100.0	60
03/08/19	1:00 p	47.0	47.0	45.3	63	35.0	6.0	SSE	6.00	14.0	SE	44.1	46.3	43.4	30.291	0.00	0.00	0.750	0.000	81.4	23	40.0	78.6	1405	1	100.0	60
03/08/19	2:00 p	47.6	47.8	47.0	66	36.8	6.0	SSE	6.00	15.0	SSE	44.8	46.9	44.1	30.240	0.00	0.00	0.725	0.000	81.4	23	40.0	78.6	1404	1	100.0	60
03/08/19	3:00 p	46.1	47.7	46.1	69	36.5	6.0	SSE	6.00	15.0	SSE	43.0	45.6	42.5	30.213	0.00	0.00	0.788	0.000	81.1	23	39.8	78.3	1405	1	100.0	60
03/08/19	4:00 p	45.1	46.0	45.1	75	37.6	7.0	SSE	7.00	15.0	SSE	41.3	44.7	40.9	30.227	0.00	0.00	0.829	0.000	80.8	23	39.5	78.0	1405	1	100.0	60
03/08/19	5:00 p	45.2	45.3	45.1	78	38.7	6.0	SSE	6.00	12.0	S	41.9	44.9	41.6	30.206	0.00	0.00	0.825	0.000	80.8	23	39.5	78.0	1405	1	100.0	60
03/08/19	6:00 p	44.4	45.2	44.4	79	38.3	5.0	SSE	5.00	11.0	SSE	41.6	44.2	41.4	30.190	0.00	0.00	0.858	0.000	81.0	23	39.7	78.2	1405	1	100.0	60
03/08/19	7:00 p	43.5	44.4	43.5	85	39.3	5.0	SE	5.00	11.0	SSE	40.6	43.4	40.5	30.187	0.00	0.00	0.896	0.000	80.9	23	39.6	78.1	1405	1	100.0	60
03/08/19	8:00 p	43.0	43.5	43.0	90	40.3	6.0	SSE	6.00	13.0	SE	39.3	43.0	39.3	30.182	0.00	0.00	0.917	0.000	81.9	24	41.6	79.3	1405	1	100.0	60
03/08/19	9:00 p	43.1	43.1	42.9	92	40.9	6.0	SSE	6.00	11.0	SSE	39.4	43.1	39.4	30.163	0.00	0.00	0.913	0.000	82.6	23	41.0	79.8	1405	1	100.0	60
03/08/19	10:00 p	43.6	43.6	43.1	92	41.4	5.0	SSE	5.00	11.0	S	40.7	43.7	40.8	30.156	0.00	0.00	0.892	0.000	82.3	24	41.9	79.7	1405	1	100.0	60
03/08/19	11:00 p	44.2	44.2	43.6	91	41.7	5.0	S	5.00	12.0	ESE	41.4	44.3	41.5	30.156	0.00	0.00	0.867	0.000	82.1	24	41.7	79.5	1405	1	100.0	60
03/09/19	12:00 a	44.5	44.5	44.2	91	42.0	4.0	S	4.00	6.0	S	42.5	44.6	42.6	30.160	0.00	0.00	0.854	0.000	81.7	24	41.4	79.1	1405	1	100.0	60
SATURDAY		Temp	Hi	Low	Out	Dew	Wind	Wind	Wind	Hi	Hi	Wind	Heat	THW			Rain	Heat	Cool	In 	In	In 	In 	Wind	Wind	ISS 	Arc.
Date		Time	Out	Temp	Temp	Hum	Pt.	Speed	Dir	Run	Speed	Dir	Chill	Index	Index	Bar  	Rain	Rate	D-D 	D-D 	Temp	Hum	Dew	Heat	Samp	Tx 	Recept	Int.
03/09/19	1:00 a	44.1	44.5	44.1	90	41.4	5.0	NNW	5.00	13.0	NNW	41.3	44.2	41.4	30.168	0.00	0.00	0.871	0.000	80.1	25	41.1	77.6	1403	1	100.0	60
03/09/19	2:00 a	43.6	44.1	43.6	90	40.9	5.0	NNW	5.00	13.0	NNW	40.7	43.7	40.8	30.179	0.00	0.00	0.892	0.000	78.8	25	40.0	76.6	1405	1	100.0	60
03/09/19	3:00 a	43.6	43.6	43.6	92	41.4	5.0	NE	5.00	11.0	NE	40.7	43.7	40.8	30.168	0.00	0.00	0.892	0.000	78.6	25	39.8	76.5	1405	1	100.0	60
03/09/19	4:00 a	43.2	43.6	43.2	94	41.6	5.0	NE	5.00	13.0	E	40.2	43.3	40.3	30.178	0.00	0.00	0.908	0.000	78.6	25	39.8	76.5	1405	1	100.0	60
03/09/19	5:00 a	42.7	43.2	42.7	94	41.1	7.0	NE	7.00	15.0	ENE	38.4	42.8	38.5	30.191	0.00	0.00	0.929	0.000	78.4	25	39.7	76.4	1405	1	100.0	60
03/09/19	6:00 a	42.4	42.7	42.4	94	40.8	6.0	NE	6.00	15.0	NNE	38.6	42.5	38.7	30.216	0.00	0.00	0.942	0.000	79.2	25	40.3	76.9	1405	1	100.0	60
03/09/19	7:00 a	42.2	42.4	42.1	94	40.6	6.0	NE	6.00	14.0	NE	38.3	42.3	38.4	30.223	0.00	0.00	0.950	0.000	79.2	25	40.3	76.9	1405	1	100.0	60
03/09/19	8:00 a	42.7	42.8	42.2	92	40.5	7.0	NE	7.00	15.0	NE	38.4	42.7	38.4	30.250	0.00	0.00	0.929	0.000	80.0	25	41.0	77.5	1405	1	100.0	60
03/09/19	9:00 a	43.9	43.9	42.7	89	40.9	7.0	ENE	7.00	16.0	ENE	39.9	44.0	40.0	30.269	0.00	0.00	0.879	0.000	82.5	25	43.1	80.0	1405	1	100.0	60
03/09/19	10:00 a	43.8	44.1	43.7	88	40.5	12.0	NE	12.00	20.0	NE	37.2	43.8	37.2	30.272	0.00	0.00	0.883	0.000	82.3	25	43.0	79.8	1405	1	100.0	60
03/09/19	11:00 a	43.7	44.1	43.7	87	40.1	10.0	NE	10.00	18.0	ENE	37.9	43.7	37.9	30.293	0.00	0.00	0.887	0.000	80.8	25	41.7	78.2	1405	1	100.0	60
03/09/19	12:00 p	43.3	43.8	43.3	89	40.3	10.0	NE	10.00	17.0	NE	37.5	43.3	37.5	30.293	0.00	0.00	0.904	0.000	81.5	25	42.3	79.0	1404	1	100.0	60
03/09/19	1:00 p	42.2	43.3	42.2	88	38.9	11.0	ENE	11.00	18.0	ENE	35.7	42.1	35.6	30.280	0.00	0.00	0.950	0.000	81.5	25	42.3	79.0	1405	1	100.0	60
03/09/19	2:00 p	43.3	43.3	42.2	85	39.1	12.0	ENE	12.00	20.0	E	36.6	43.2	36.5	30.274	0.00	0.00	0.904	0.000	82.6	25	43.2	80.0	1405	1	100.0	60
03/09/19	3:00 p	44.6	44.6	43.3	83	39.8	10.0	ENE	10.00	19.0	ENE	39.0	44.5	38.9	30.258	0.00	0.00	0.850	0.000	84.0	25	44.4	81.5	1405	1	100.0	60
03/09/19	4:00 p	44.6	44.8	44.6	83	39.8	10.0	ENE	10.00	15.0	ENE	39.0	44.5	38.9	30.252	0.00	0.00	0.850	0.000	84.1	26	45.5	81.7	1405	1	100.0	60
03/09/19	5:00 p	43.8	44.6	43.8	85	39.6	11.0	NE	11.00	17.0	ENE	37.6	43.7	37.5	30.257	0.00	0.00	0.883	0.000	84.3	26	45.7	81.9	1405	1	100.0	60
03/09/19	6:00 p	43.2	43.8	43.2	87	39.6	10.0	ENE	10.00	19.0	ENE	37.3	43.1	37.2	30.250	0.00	0.00	0.908	0.000	84.3	26	45.7	81.9	1405	1	100.0	60
03/09/19	7:00 p	43.2	43.3	43.1	88	39.9	7.0	E	7.00	18.0	ENE	39.0	43.2	39.0	30.250	0.00	0.00	0.908	0.000	84.1	25	44.5	81.6	1405	1	100.0	60
03/09/19	8:00 p	43.5	43.5	43.2	90	40.8	6.0	E	6.00	15.0	NE	39.9	43.5	39.9	30.244	0.00	0.00	0.896	0.000	83.3	25	43.8	80.7	1405	1	100.0	60
03/09/19	9:00 p	44.2	44.2	43.5	92	42.0	6.0	E	6.00	15.0	ENE	40.7	44.3	40.8	30.211	0.00	0.00	0.867	0.000	82.6	26	44.2	80.2	1405	1	100.0	60
03/09/19	10:00 p	44.9	44.9	44.2	93	43.0	5.0	E	5.00	13.0	ENE	42.2	45.1	42.4	30.216	0.00	0.00	0.837	0.000	82.9	26	44.5	80.4	1404	1	100.0	60
03/09/19	11:00 p	45.9	46.0	44.9	93	44.0	4.0	ENE	4.00	10.0	ENE	44.1	46.1	44.3	30.209	0.00	0.00	0.796	0.000	82.8	26	44.4	80.3	1405	1	100.0	60
03/10/19	12:00 a	46.4	46.4	45.9	94	44.8	4.0	ESE	4.00	10.0	S	44.7	46.7	45.0	30.161	0.00	0.00	0.775	0.000	82.6	26	44.2	80.2	1405	1	100.0	60
SUNDAY			Temp	Hi	Low	Out	Dew	Wind	Wind	Wind	Hi	Hi	Wind	Heat	THW			Rain	Heat	Cool	In 	In	In 	In 	Wind	Wind	ISS 	Arc.
Date		Time	Out	Temp	Temp	Hum	Pt.	Speed	Dir	Run	Speed	Dir	Chill	Index	Index	Bar  	Rain	Rate	D-D 	D-D 	Temp	Hum	Dew	Heat	Samp	Tx 	Recept	Int.
03/10/19	1:00 a	47.0	47.0	46.4	94	45.4	6.0	SE	6.00	16.0	SSE	44.1	47.3	44.4	30.125	0.00	0.00	0.750	0.000	81.1	26	43.0	78.6	1404	1	100.0	60
03/10/19	2:00 a	48.0	48.0	47.0	94	46.4	6.0	SSE	6.00	14.0	SE	45.3	48.4	45.7	30.102	0.00	0.00	0.708	0.000	79.8	27	42.8	77.5	1405	1	100.0	60
03/10/19	3:00 a	48.7	48.7	48.0	94	47.1	4.0	S	4.00	11.0	ESE	47.4	49.1	47.8	30.090	0.00	0.00	0.679	0.000	78.9	27	42.1	76.8	1405	1	100.0	60
03/10/19	4:00 a	49.0	49.1	48.7	94	47.3	0.0	ESE	0.00	5.0	ESE	49.0	49.5	49.5	30.081	0.00	0.00	0.667	0.000	79.1	27	42.2	77.0	1405	1	100.0	60
03/10/19	5:00 a	49.4	49.4	49.0	95	48.0	4.0	ESE	4.00	7.0	SSE	48.2	49.9	48.7	30.076	0.01	0.00	0.650	0.000	78.4	28	42.6	76.6	1405	1	100.0	60
03/10/19	6:00 a	50.3	50.3	49.4	97	49.5	5.0	S	5.00	12.0	S	48.6	50.8	49.1	30.067	0.05	0.91	0.613	0.000	78.6	28	42.8	76.7	1405	1	100.0	60
03/10/19	7:00 a	53.5	53.5	50.3	100	53.5	7.0	S	7.00	16.0	S	51.4	53.9	51.8	30.061	0.10	1.03	0.479	0.000	78.9	28	43.0	76.9	1405	1	100.0	60
03/10/19	9:00 a	58.1	58.1	53.5	100	58.1	10.0	SSW	10.00	22.0	SSE	54.7	58.5	55.1	30.053	0.02	0.19	0.288	0.000	79.6	30	45.4	77.7	1391	1	100.0	60
03/10/19	10:00 a	61.0	61.0	58.1	100	61.0	11.0	SSW	11.00	23.0	SW	57.5	61.7	58.2	30.040	0.00	0.00	0.167	0.000	79.6	30	45.4	77.7	1405	1	100.0	60
03/10/19	11:00 a	63.9	63.9	61.0	100	63.9	11.0	SSW	11.00	27.0	SW	60.8	65.0	61.9	30.028	0.00	0.00	0.046	0.000	80.4	31	47.0	78.5	1405	1	100.0	60
03/10/19	12:00 p	66.3	66.3	63.9	98	65.7	11.0	SW	11.00	30.0	WSW	63.6	67.8	65.1	30.019	0.00	0.00	0.000	0.054	81.6	31	48.0	79.8	1405	1	100.0	60
03/10/19	1:00 p	71.1	71.1	66.2	84	66.0	11.0	SW	11.00	23.0	WSW	68.5	72.8	70.2	29.997	0.00	0.00	0.000	0.254	83.5	33	51.4	82.2	1405	1	100.0	60
03/10/19	2:00 p	74.0	74.1	71.2	72	64.4	12.0	SW	12.00	32.0	SW	71.1	75.7	72.8	29.968	0.01	0.00	0.000	0.375	84.7	34	53.2	83.7	1405	1	100.0	60
03/10/19	3:00 p	73.4	74.0	73.2	76	65.4	10.0	SW	10.00	23.0	SSW	71.3	75.1	73.0	29.949	0.00	0.00	0.000	0.350	85.0	34	53.5	84.0	1405	1	100.0	60
03/10/19	4:00 p	75.5	75.5	73.4	70	65.0	10.0	SW	10.00	23.0	SW	73.6	77.3	75.4	29.927	0.00	0.00	0.000	0.438	86.4	34	54.7	85.5	1405	1	100.0	60
03/10/19	5:00 p	75.1	75.8	75.1	69	64.2	13.0	SW	13.00	27.0	SSW	71.9	76.7	73.5	29.936	0.00	0.00	0.000	0.421	87.3	34	55.5	86.2	1405	1	100.0	60
03/10/19	6:00 p	73.8	75.1	73.8	71	63.8	12.0	SW	12.00	31.0	SW	70.9	75.4	72.5	29.934	0.00	0.00	0.000	0.367	87.3	35	56.3	86.4	1405	1	100.0	60
03/10/19	7:00 p	71.7	73.8	71.7	75	63.4	11.0	SW	11.00	24.0	SW	69.1	72.6	70.0	29.943	0.00	0.00	0.000	0.279	87.0	35	56.0	86.2	1405	1	100.0	60
03/10/19	8:00 p	69.9	71.7	69.9	80	63.4	10.0	SW	10.00	27.0	SW	67.8	71.0	68.9	29.961	0.00	0.00	0.000	0.204	86.3	34	54.6	85.4	1404	1	100.0	60
03/10/19	9:00 p	68.2	69.9	68.2	84	63.2	7.0	SW	7.00	16.0	WSW	68.2	69.7	69.7	29.973	0.00	0.00	0.000	0.133	85.8	34	54.2	84.9	1405	1	100.0	60
03/10/19	10:00 p	66.5	68.1	66.5	88	62.8	6.0	SW	6.00	14.0	SSW	66.5	67.8	67.8	29.980	0.00	0.00	0.000	0.063	85.2	34	53.7	84.2	1405	1	100.0	60
03/10/19	11:00 p	65.2	66.5	65.2	89	61.9	6.0	SW	6.00	19.0	SW	65.2	66.2	66.2	29.995	0.00	0.00	0.000	0.008	84.6	34	53.1	83.6	1405	1	100.0	60
03/11/19	12:00 a	64.0	65.2	64.0	89	60.7	6.0	SW	6.00	14.0	WSW	64.0	64.8	64.8	30.003	0.00	0.00	0.042	0.000	84.2	34	52.8	83.3	1405	1	100.0	60
MONDAY			Temp	Hi	Low	Out	Dew	Wind	Wind	Wind	Hi	Hi	Wind	Heat	THW			Rain	Heat	Cool	In 	In	In 	In 	Wind	Wind	ISS 	Arc.
Date		Time	Out	Temp	Temp	Hum	Pt.	Speed	Dir	Run	Speed	Dir	Chill	Index	Index	Bar  	Rain	Rate	D-D 	D-D 	Temp	Hum	Dew	Heat	Samp	Tx 	Recept	Int.
03/11/19	1:00 a	63.5	64.0	63.5	88	59.9	6.0	WSW	6.00	16.0	SW	63.5	64.2	64.2	30.020	0.00	0.00	0.063	0.000	83.7	34	52.3	82.7	1404	1	100.0	60
03/11/19	2:00 a	62.5	63.5	62.5	87	58.6	7.0	W	7.00	16.0	WSW	62.3	63.0	62.8	30.031	0.00	0.00	0.104	0.000	83.1	34	51.8	81.8	1405	1	100.0	60
03/11/19	3:00 a	60.5	62.5	60.4	89	57.2	6.0	W	6.00	17.0	WSW	60.2	60.8	60.5	30.049	0.00	0.00	0.188	0.000	82.4	34	51.2	81.0	1405	1	100.0	60
03/11/19	4:00 a	58.4	60.4	58.4	90	55.5	5.0	W	5.00	13.0	W	58.1	58.5	58.2	30.035	0.00	0.00	0.275	0.000	81.6	34	50.5	80.1	1405	1	100.0	60
03/11/19	5:00 a	56.9	58.4	56.9	91	54.3	4.0	WSW	4.00	12.0	W	56.9	57.0	57.0	30.048	0.00	0.00	0.337	0.000	80.9	34	49.9	79.3	1405	1	100.0	60
03/11/19	6:00 a	55.0	56.9	55.0	92	52.7	0.0	WSW	0.00	7.0	WSW	55.0	55.1	55.1	30.075	0.00	0.00	0.417	0.000	81.1	34	50.1	79.5	1405	1	100.0	60
03/11/19	7:00 a	53.1	54.9	53.1	93	51.1	0.0	WSW	0.00	6.0	WSW	53.1	53.3	53.3	30.097	0.00	0.00	0.496	0.000	80.3	34	49.4	78.7	1404	1	100.0	60
03/11/19	8:00 a	51.2	53.1	51.2	94	49.5	0.0	WSW	0.00	4.0	WSW	51.2	51.5	51.5	30.125	0.00	0.00	0.575	0.000	80.6	34	49.6	79.0	1405	1	100.0	60
03/11/19	9:00 a	53.4	53.4	50.9	89	50.2	4.0	NW	4.00	13.0	N	52.8	53.5	52.9	30.168	0.00	0.00	0.483	0.000	80.4	34	49.5	78.8	1405	1	100.0	60
03/11/19	10:00 a	58.4	58.4	53.5	68	47.9	6.0	NNW	6.00	15.0	N	57.7	57.5	56.8	30.192	0.00	0.00	0.275	0.000	81.2	33	49.4	79.5	1405	1	100.0	60
03/11/19	11:00 a	60.4	60.4	58.4	60	46.4	7.0	ENE	7.00	15.0	NE	59.7	59.1	58.4	30.180	0.00	0.00	0.192	0.000	81.8	33	49.9	80.2	1405	1	100.0	60
03/11/19	12:00 p	61.5	61.5	60.4	48	41.6	6.0	NE	6.00	17.0	NNE	61.4	59.4	59.3	30.195	0.00	0.00	0.146	0.000	82.7	33	50.7	81.2	1405	1	100.0	60
03/11/19	1:00 p	61.9	61.9	61.5	44	39.7	5.0	NW	5.00	15.0	WNW	61.9	59.5	59.5	30.175	0.00	0.00	0.129	0.000	83.7	33	51.5	82.5	1405	1	100.0	60
03/11/19	2:00 p	63.5	63.5	61.9	45	41.8	5.0	ENE	5.00	13.0	ENE	63.5	61.3	61.3	30.144	0.00	0.00	0.063	0.000	84.9	32	51.7	83.5	1405	1	100.0	60
03/11/19	3:00 p	65.3	65.3	63.5	40	40.3	6.0	NW	6.00	15.0	WNW	65.3	62.7	62.7	30.119	0.00	0.00	0.000	0.013	86.0	33	53.5	84.9	1405	1	100.0	60
03/11/19	4:00 p	68.0	68.0	65.3	28	33.7	7.0	WSW	7.00	18.0	WSW	68.0	64.2	64.2	30.112	0.00	0.00	0.000	0.125	88.2	32	54.6	86.4	1405	1	100.0	60
03/11/19	5:00 p	66.5	68.0	66.5	31	34.9	7.0	W	7.00	17.0	WNW	66.5	63.0	63.0	30.110	0.00	0.00	0.000	0.063	87.3	33	54.7	86.0	1405	1	100.0	60
03/11/19	6:00 p	65.5	66.5	65.4	36	37.8	5.0	WSW	5.00	13.0	W	65.5	62.5	62.5	30.092	0.00	0.00	0.000	0.021	86.5	33	54.0	85.4	1405	1	100.0	60
03/11/19	7:00 p	63.1	65.4	63.1	41	39.0	5.0	NW	5.00	10.0	NW	63.1	60.5	60.5	30.094	0.00	0.00	0.079	0.000	85.6	33	53.2	84.5	1405	1	100.0	60
03/11/19	8:00 p	60.1	63.1	60.1	50	41.4	0.0	NW	0.00	5.0	NW	60.1	58.1	58.1	30.105	0.00	0.00	0.204	0.000	85.3	33	52.9	84.1	1405	1	100.0	60
03/11/19	9:00 p	57.3	60.1	57.3	55	41.3	0.0	---	0.00	0.0	---	57.3	55.7	55.7	30.107	0.00	0.00	0.321	0.000	84.3	33	52.1	83.2	1405	1	100.0	60
03/11/19	10:00 p	53.7	57.3	53.7	62	41.0	0.0	NW	0.00	4.0	NW	53.7	52.6	52.6	30.111	0.00	0.00	0.471	0.000	83.3	33	51.2	81.9	1404	1	100.0	60
03/11/19	11:00 p	50.1	53.7	50.1	62	37.6	0.0	WNW	0.00	7.0	W	50.1	49.4	49.4	30.120	0.00	0.00	0.621	0.000	82.7	32	49.8	81.0	1405	1	100.0	60
TUESDAY			Temp	Hi	Low	Out	Dew	Wind	Wind	Wind	Hi	Hi	Wind	Heat	THW			Rain	Heat	Cool	In 	In	In 	In 	Wind	Wind	ISS 	Arc.
Date		Time	Out	Temp	Temp	Hum	Pt.	Speed	Dir	Run	Speed	Dir	Chill	Index	Index	Bar  	Rain	Rate	D-D 	D-D 	Temp	Hum	Dew	Heat	Samp	Tx 	Recept	Int.
03/12/19	1:00 a	47.7	48.2	46.5	64	36.1	5.0	W	5.00	16.0	W	45.5	47.0	44.8	30.117	0.00	0.00	0.721	0.000	81.0	32	48.4	79.2	1404	1	100.0	60
03/12/19	2:00 a	51.3	51.5	47.7	53	34.7	10.0	NNW	10.00	19.0	NNW	46.8	50.1	45.6	30.128	0.00	0.00	0.571	0.000	80.8	32	48.2	79.0	1405	1	100.0	60
03/12/19	3:00 a	49.3	51.3	49.3	55	33.8	5.0	NNW	5.00	12.0	ENE	47.4	48.3	46.4	30.134	0.00	0.00	0.654	0.000	80.4	32	47.8	78.6	1405	1	100.0	60
03/12/19	4:00 a	45.6	49.3	45.6	65	34.5	4.0	NNW	4.00	7.0	NNW	43.8	44.9	43.1	30.146	0.00	0.00	0.808	0.000	79.2	33	47.6	77.7	1405	1	100.0	60
03/12/19	5:00 a	44.1	45.6	43.5	61	31.5	5.0	NW	5.00	14.0	NW	41.3	43.3	40.5	30.155	0.00	0.00	0.871	0.000	79.0	32	46.6	77.4	1405	1	100.0	60
03/12/19	6:00 a	46.3	46.3	44.1	54	30.5	7.0	NNW	7.00	17.0	NNW	42.8	45.3	41.8	30.181	0.00	0.00	0.779	0.000	78.6	32	46.3	77.1	1405	1	100.0	60
03/12/19	7:00 a	46.1	46.4	46.1	54	30.4	10.0	NNW	10.00	22.0	NNW	40.7	45.1	39.7	30.211	0.00	0.00	0.788	0.000	78.1	31	45.0	76.5	1404	1	100.0	60
03/12/19	8:00 a	45.4	46.1	45.4	51	28.3	11.0	NNW	11.00	20.0	NNW	39.5	44.3	38.4	30.238	0.00	0.00	0.817	0.000	79.0	31	45.8	77.3	1405	1	100.0	60
03/12/19	9:00 a	45.2	45.4	45.1	53	29.1	11.0	NNW	11.00	23.0	NNW	39.2	44.2	38.2	30.264	0.00	0.00	0.825	0.000	79.9	29	44.8	77.8	1405	1	100.0	60
03/12/19	10:00 a	46.3	46.3	45.2	51	29.1	13.0	NNW	13.00	24.0	ENE	39.7	45.2	38.6	30.286	0.00	0.00	0.779	0.000	81.1	28	44.9	78.9	1405	1	100.0	60
03/12/19	11:00 a	47.8	47.8	46.3	44	26.9	13.0	NNW	13.00	24.0	NNW	41.4	46.5	40.1	30.290	0.00	0.00	0.717	0.000	82.4	29	46.9	80.3	1405	1	100.0	60
03/12/19	12:00 p	49.0	49.0	47.8	40	25.7	12.0	NNW	12.00	22.0	NE	43.2	47.5	41.7	30.292	0.00	0.00	0.667	0.000	83.3	28	46.8	81.1	1405	1	100.0	60
03/12/19	1:00 p	50.5	50.5	49.0	35	23.8	12.0	NNW	12.00	25.0	NW	44.8	48.7	43.0	30.287	0.00	0.00	0.604	0.000	83.7	28	47.1	81.6	1405	1	100.0	60
03/12/19	2:00 p	51.5	51.5	50.4	35	24.7	12.0	NNW	12.00	24.0	NNW	46.0	49.5	44.0	30.260	0.00	0.00	0.563	0.000	84.6	28	47.9	82.5	1405	1	100.0	60
03/12/19	3:00 p	52.3	52.4	51.4	34	24.7	11.0	NNW	11.00	22.0	NNW	47.4	50.1	45.2	30.246	0.00	0.00	0.529	0.000	84.6	28	47.9	82.5	1405	1	100.0	60
03/12/19	4:00 p	52.1	52.4	52.0	37	26.6	11.0	NNW	11.00	28.0	NW	47.2	50.1	45.2	30.235	0.00	0.00	0.538	0.000	88.7	26	49.4	85.9	1405	1	100.0	60
03/12/19	5:00 p	52.3	52.5	52.1	35	25.4	10.0	NNW	10.00	17.0	NNW	48.0	50.1	45.8	30.237	0.00	0.00	0.529	0.000	90.2	25	49.6	87.6	1405	1	100.0	60
03/12/19	6:00 p	52.5	52.6	52.3	36	26.3	10.0	NNW	10.00	19.0	NNW	48.2	50.3	46.0	30.242	0.00	0.00	0.521	0.000	88.0	26	48.8	85.1	1405	1	100.0	60
03/12/19	7:00 p	51.4	52.9	51.4	44	30.2	6.0	NE	6.00	15.0	NNW	49.3	49.8	47.7	30.256	0.00	0.00	0.567	0.000	86.6	26	47.6	84.1	1405	1	100.0	60
03/12/19	8:00 p	47.4	51.3	47.4	47	28.2	6.0	ENE	6.00	14.0	ENE	44.6	46.1	43.3	30.275	0.00	0.00	0.733	0.000	85.2	27	47.4	82.9	1404	1	100.0	60
03/12/19	9:00 p	45.7	47.4	45.7	51	28.6	4.0	ENE	4.00	10.0	ENE	43.9	44.6	42.8	30.305	0.00	0.00	0.804	0.000	84.3	27	46.7	82.1	1406	1	100.0	60
03/12/19	10:00 p	43.4	45.7	43.4	57	29.2	0.0	ENE	0.00	7.0	NE	43.4	42.5	42.5	30.314	0.00	0.00	0.900	0.000	83.1	27	45.7	80.8	1404	1	100.0	60
03/12/19	11:00 p	40.4	43.4	40.4	66	29.9	0.0	ENE	0.00	4.0	ENE	40.4	39.7	39.7	30.316	0.00	0.00	1.025	0.000	82.2	27	44.9	79.9	1405	1	100.0	60
WEDNESDAY		Temp	Hi	Low	Out	Dew	Wind	Wind	Wind	Hi	Hi	Wind	Heat	THW			Rain	Heat	Cool	In 	In	In 	In 	Wind	Wind	ISS 	Arc.
Date		Time	Out	Temp	Temp	Hum	Pt.	Speed	Dir	Run	Speed	Dir	Chill	Index	Index	Bar  	Rain	Rate	D-D 	D-D 	Temp	Hum	Dew	Heat	Samp	Tx 	Recept	Int.
03/13/19	1:00 a	36.4	38.3	36.4	78	30.2	0.0	ENE	0.00	5.0	ENE	36.4	36.1	36.1	30.327	0.00	0.00	1.192	0.000	80.4	27	43.3	78.1	1403	1	100.0	60
03/13/19	2:00 a	34.9	36.4	34.9	81	29.7	0.0	ENE	0.00	4.0	ENE	34.9	34.6	34.6	30.333	0.00	0.00	1.254	0.000	79.6	27	42.7	77.4	1405	1	100.0	60
03/13/19	3:00 a	33.9	34.9	33.9	84	29.6	0.0	ENE	0.00	5.0	ENE	33.9	33.6	33.6	30.345	0.00	0.00	1.296	0.000	79.4	27	42.5	77.2	1405	1	100.0	60
03/13/19	4:00 a	33.5	33.9	33.5	86	29.8	0.0	ENE	0.00	4.0	ENE	33.5	33.3	33.3	30.331	0.00	0.00	1.313	0.000	79.3	26	41.4	77.0	1405	1	100.0	60
03/13/19	5:00 a	32.2	33.5	32.2	88	29.0	0.0	ENE	0.00	5.0	ENE	32.2	32.0	32.0	30.329	0.00	0.00	1.367	0.000	78.6	26	40.8	76.6	1404	1	100.0	60
03/13/19	6:00 a	31.4	32.2	31.4	89	28.5	0.0	ENE	0.00	4.0	ENE	31.4	31.2	31.2	30.336	0.00	0.00	1.400	0.000	78.3	26	40.6	76.4	1405	1	100.0	60
03/13/19	7:00 a	30.9	31.4	30.9	90	28.3	0.0	ENE	0.00	4.0	ENE	30.9	30.7	30.7	30.351	0.00	0.00	1.421	0.000	79.3	26	41.4	77.0	1405	1	100.0	60
03/13/19	8:00 a	31.5	31.5	30.8	93	29.7	0.0	ENE	0.00	5.0	ENE	31.5	31.4	31.4	30.353	0.00	0.00	1.396	0.000	79.3	25	40.4	76.9	1405	1	100.0	60
03/13/19	9:00 a	35.3	35.3	31.5	95	34.0	0.0	ENE	0.00	4.0	ENE	35.3	35.3	35.3	30.371	0.00	0.00	1.238	0.000	81.6	25	42.4	79.1	1405	1	100.0	60
03/13/19	10:00 a	42.3	42.3	35.3	74	34.6	2.0	SSE	2.00	14.0	S	42.3	41.9	41.9	30.372	0.00	0.00	0.946	0.000	83.8	25	44.2	81.3	1405	1	100.0	60
03/13/19	11:00 a	49.1	49.1	42.3	51	31.7	7.0	SSE	7.00	16.0	SSE	46.1	47.9	44.9	30.358	0.00	0.00	0.663	0.000	84.7	25	45.0	82.1	1405	1	100.0	60
03/13/19	12:00 p	52.1	52.2	49.1	48	33.0	7.0	SSE	7.00	16.0	SSE	49.7	50.5	48.1	30.360	0.00	0.00	0.538	0.000	84.5	26	45.8	82.1	1405	1	100.0	60
03/13/19	1:00 p	54.7	54.7	52.2	42	32.0	6.0	S	6.00	17.0	SSE	53.2	52.5	51.0	30.356	0.00	0.00	0.429	0.000	85.0	26	46.3	82.6	1405	1	100.0	60
03/13/19	2:00 p	56.9	56.9	54.7	39	32.2	7.0	SSE	7.00	19.0	SSE	55.5	54.3	52.9	30.320	0.00	0.00	0.337	0.000	85.8	28	48.9	83.7	1405	1	100.0	60
03/13/19	3:00 p	58.2	58.2	56.9	42	35.2	10.0	SE	10.00	17.0	SSE	54.8	55.7	52.3	30.297	0.00	0.00	0.283	0.000	86.0	29	50.0	84.1	1405	1	100.0	60
03/13/19	4:00 p	60.0	60.0	58.1	41	36.2	11.0	SSE	11.00	21.0	SSE	56.3	57.4	53.7	30.284	0.00	0.00	0.208	0.000	88.2	27	50.0	85.5	1404	1	100.0	60
03/13/19	5:00 p	58.5	60.0	58.4	48	38.9	12.0	SE	12.00	21.0	S	54.1	56.4	52.0	30.278	0.00	0.00	0.271	0.000	90.4	25	49.8	87.9	1405	1	100.0	60
03/13/19	6:00 p	56.9	58.5	56.9	51	38.9	13.0	SSE	13.00	21.0	SSE	51.8	55.1	50.0	30.267	0.00	0.00	0.337	0.000	87.8	26	48.6	84.9	1405	1	100.0	60
03/13/19	7:00 p	55.3	56.9	55.3	47	35.4	11.0	SSE	11.00	20.0	SSE	50.9	53.3	48.9	30.281	0.00	0.00	0.404	0.000	87.0	26	48.0	84.5	1405	1	100.0	60
03/13/19	8:00 p	50.8	55.3	50.8	58	36.5	11.0	SSE	11.00	20.0	SSE	45.7	49.8	44.7	30.285	0.00	0.00	0.592	0.000	86.8	26	47.8	84.3	1405	1	100.0	60
03/13/19	9:00 p	48.0	50.8	48.0	71	39.0	11.0	SSE	11.00	18.0	SSE	42.5	47.5	42.0	30.298	0.00	0.00	0.708	0.000	87.6	25	47.4	84.7	1405	1	100.0	60
03/13/19	10:00 p	47.0	48.0	47.0	71	38.1	10.0	SSE	10.00	16.0	S	41.8	46.5	41.3	30.299	0.00	0.00	0.750	0.000	86.6	25	46.6	83.9	1405	1	100.0	60
03/13/19	11:00 p	46.5	47.0	46.5	75	39.0	10.0	SSE	10.00	15.0	SSE	41.2	46.1	40.8	30.306	0.00	0.00	0.771	0.000	86.7	25	46.7	84.0	1405	1	100.0	60
03/14/19	12:00 a	46.4	46.5	46.3	75	38.9	7.0	SSE	7.00	15.0	SSE	42.9	46.0	42.5	30.295	0.00	0.00	0.775	0.000	85.7	26	46.9	83.3	1405	1	100.0	60
THURSDAY		Temp	Hi	Low	Out	Dew	Wind	Wind	Wind	Hi	Hi	Wind	Heat	THW			Rain	Heat	Cool	In 	In	In 	In 	Wind	Wind	ISS 	Arc.
Date		Time	Out	Temp	Temp	Hum	Pt.	Speed	Dir	Run	Speed	Dir	Chill	Index	Index	Bar  	Rain	Rate	D-D 	D-D 	Temp	Hum	Dew	Heat	Samp	Tx 	Recept	Int.
03/14/19	1:00 a	45.7	46.4	45.7	76	38.6	7.0	S	7.00	14.0	SSE	42.0	45.3	41.6	30.272	0.00	0.00	0.804	0.000	84.8	26	46.1	82.4	1404	1	100.0	60
03/14/19	2:00 a	44.5	45.7	44.5	80	38.7	6.0	S	6.00	12.0	S	41.1	44.3	40.9	30.279	0.00	0.00	0.854	0.000	83.0	27	45.6	80.6	1405	1	100.0	60
03/14/19	3:00 a	43.6	44.5	43.6	84	39.1	6.0	S	6.00	12.0	S	40.0	43.5	39.9	30.268	0.00	0.00	0.892	0.000	81.3	27	44.1	79.0	1404	1	100.0	60
03/14/19	4:00 a	42.8	43.6	42.8	86	38.9	5.0	S	5.00	10.0	S	39.8	42.7	39.7	30.257	0.00	0.00	0.925	0.000	79.9	27	42.9	77.6	1405	1	100.0	60
03/14/19	5:00 a	42.3	42.8	42.3	88	39.0	5.0	S	5.00	10.0	S	39.2	42.2	39.1	30.236	0.00	0.00	0.946	0.000	79.6	28	43.6	77.5	1405	1	100.0	60
03/14/19	6:00 a	42.6	42.6	42.2	90	39.9	5.0	S	5.00	11.0	SSE	39.5	42.6	39.5	30.240	0.00	0.00	0.933	0.000	79.4	27	42.5	77.2	1405	1	100.0	60
03/14/19	7:00 a	43.4	43.4	42.6	91	40.9	5.0	S	5.00	11.0	S	40.5	43.5	40.6	30.241	0.00	0.00	0.900	0.000	79.4	28	43.4	77.3	1405	1	100.0	60
03/14/19	8:00 a	43.8	43.8	43.4	91	41.3	5.0	SSE	5.00	10.0	SSE	41.0	43.9	41.1	30.232	0.00	0.00	0.883	0.000	79.7	27	42.8	77.5	1405	1	100.0	60
03/14/19	9:00 a	46.2	46.2	43.8	92	44.0	6.0	S	6.00	11.0	S	43.1	46.4	43.3	30.228	0.00	0.00	0.783	0.000	80.0	29	44.9	77.9	1405	1	100.0	60
03/14/19	10:00 a	52.5	52.5	46.3	83	47.5	7.0	S	7.00	17.0	S	50.2	52.4	50.1	30.235	0.00	0.00	0.521	0.000	79.9	29	44.8	77.8	1405	1	100.0	60
03/14/19	11:00 a	61.1	61.1	52.5	72	52.0	10.0	SSW	10.00	22.0	S	58.2	60.6	57.7	30.225	0.00	0.00	0.163	0.000	81.5	29	46.2	79.4	1405	1	100.0	60
03/14/19	12:00 p	65.9	65.9	61.1	66	54.2	11.0	SSW	11.00	24.0	SSW	63.2	65.8	63.1	30.196	0.00	0.00	0.000	0.038	82.2	29	46.8	80.2	1405	1	100.0	60
03/14/19	1:00 p	70.1	70.1	65.9	61	56.0	11.0	S	11.00	21.0	W	67.5	69.4	66.8	30.176	0.00	0.00	0.000	0.212	83.5	29	47.9	81.5	1405	1	100.0	60
03/14/19	2:00 p	72.2	72.2	70.1	57	56.1	12.0	SSW	12.00	27.0	SSE	69.2	72.0	69.0	30.141	0.00	0.00	0.000	0.300	85.0	29	49.2	83.0	1405	1	100.0	60
03/14/19	3:00 p	73.6	73.6	72.2	51	54.4	13.0	SSW	13.00	28.0	SW	70.3	73.3	70.0	30.106	0.00	0.00	0.000	0.358	86.1	30	51.0	84.4	1404	1	100.0	60
03/14/19	4:00 p	74.8	74.8	73.6	50	54.9	12.0	SSW	12.00	24.0	SW	72.0	74.8	72.0	30.098	0.00	0.00	0.000	0.408	89.8	29	53.3	88.3	1405	1	100.0	60
03/14/19	5:00 p	75.5	75.5	74.7	51	56.1	11.0	SW	11.00	23.0	SW	73.2	75.6	73.3	30.084	0.00	0.00	0.000	0.438	91.7	28	54.0	90.4	1405	1	100.0	60
03/14/19	6:00 p	74.3	75.7	74.3	51	55.0	13.0	S	13.00	25.0	SSW	71.0	74.2	70.9	30.073	0.00	0.00	0.000	0.388	89.9	29	53.4	88.5	1405	1	100.0	60
03/14/19	7:00 p	70.6	74.3	70.6	59	55.6	13.0	S	13.00	22.0	SSE	67.1	69.9	66.4	30.073	0.00	0.00	0.000	0.233	88.7	30	53.3	86.6	1405	1	100.0	60
03/14/19	8:00 p	67.2	70.6	67.2	65	55.0	14.0	S	14.00	27.0	SSE	63.1	67.2	63.1	30.079	0.00	0.00	0.000	0.092	87.6	30	52.3	85.5	1405	1	100.0	60
03/14/19	9:00 p	64.9	67.2	64.9	72	55.7	14.0	S	14.00	29.0	S	60.5	65.0	60.6	30.085	0.00	0.00	0.004	0.000	86.7	30	51.6	84.9	1405	1	100.0	60
03/14/19	10:00 p	63.4	64.9	63.4	76	55.7	13.0	S	13.00	26.0	SSE	59.1	63.5	59.2	30.100	0.00	0.00	0.067	0.000	85.8	31	51.7	84.3	1405	1	100.0	60
03/14/19	11:00 p	62.7	63.4	62.7	78	55.7	12.0	S	12.00	21.0	S	58.8	62.8	58.9	30.127	0.00	0.00	0.096	0.000	84.9	31	50.9	83.3	1405	1	100.0	60
03/15/19	12:00 a	62.7	62.7	62.6	80	56.4	12.0	S	12.00	25.0	S	58.8	63.0	59.1	30.100	0.00	0.00	0.096	0.000	84.1	31	50.2	82.6	1406	1	100.0	60
FRIDAY			Temp	Hi	Low	Out	Dew	Wind	Wind	Wind	Hi	Hi	Wind	Heat	THW			Rain	Heat	Cool	In 	In	In 	In 	Wind	Wind	ISS 	Arc.
Date		Time	Out	Temp	Temp	Hum	Pt.	Speed	Dir	Run	Speed	Dir	Chill	Index	Index	Bar  	Rain	Rate	D-D 	D-D 	Temp	Hum	Dew	Heat	Samp	Tx 	Recept	Int.
03/15/19	1:00 a	62.3	62.7	62.2	82	56.7	12.0	S	12.00	21.0	SSE	58.4	62.6	58.7	30.060	0.00	0.00	0.113	0.000	83.3	32	50.4	81.7	1403	1	100.0	60
03/15/19	2:00 a	62.6	62.6	62.3	82	57.0	13.0	S	13.00	26.0	SSE	58.3	62.9	58.6	30.036	0.00	0.00	0.100	0.000	82.7	32	49.8	81.0	1405	1	100.0	60
03/15/19	3:00 a	62.6	62.6	62.6	84	57.7	11.0	SSW	11.00	23.0	SSW	59.3	63.0	59.7	30.020	0.00	0.00	0.100	0.000	82.2	33	50.2	80.7	1404	1	100.0	60
03/15/19	4:00 a	62.2	62.6	62.2	85	57.6	11.0	SSW	11.00	26.0	SSE	58.8	62.5	59.1	30.004	0.00	0.00	0.117	0.000	81.7	33	49.8	80.1	1405	1	100.0	60
03/15/19	5:00 a	62.2	62.2	62.1	87	58.3	11.0	SSW	11.00	23.0	S	58.8	62.6	59.2	29.993	0.00	0.00	0.117	0.000	81.3	33	49.4	79.6	1405	1	100.0	60
03/15/19	6:00 a	62.6	62.7	62.2	87	58.7	11.0	SSW	11.00	22.0	SSW	59.3	63.1	59.8	30.018	0.00	0.00	0.100	0.000	80.9	34	49.9	79.3	1405	1	100.0	60
03/15/19	7:00 a	62.8	62.9	62.6	88	59.2	11.0	SSW	11.00	20.0	SW	59.6	63.4	60.2	30.022	0.00	0.00	0.092	0.000	81.4	34	50.3	79.9	1405	1	100.0	60
03/15/19	8:00 a	63.4	63.4	62.7	88	59.8	11.0	SSW	11.00	23.0	SW	60.2	64.1	60.9	30.014	0.00	0.00	0.067	0.000	81.2	34	50.2	79.6	1405	1	100.0	60
03/15/19	9:00 a	64.7	64.7	63.4	85	60.1	12.0	SSW	12.00	26.0	SSE	61.1	65.4	61.8	29.989	0.00	0.00	0.013	0.000	81.0	35	50.8	79.5	1405	1	100.0	60
03/15/19	10:00 a	66.4	66.4	64.7	83	61.1	13.0	SSW	13.00	31.0	S	62.6	67.5	63.7	29.998	0.00	0.00	0.000	0.058	81.3	36	51.8	80.0	1405	1	100.0	60
03/15/19	11:00 a	69.7	69.7	66.4	78	62.5	13.0	SSW	13.00	27.0	SW	66.2	70.7	67.2	29.985	0.00	0.00	0.000	0.196	82.0	36	52.4	80.8	1405	1	100.0	60
03/15/19	12:00 p	73.8	73.8	69.7	71	63.8	14.0	SSW	14.00	32.0	SSE	70.2	75.4	71.8	29.960	0.00	0.00	0.000	0.367	83.1	36	53.4	82.1	1405	1	100.0	60
03/15/19	1:00 p	75.3	75.3	73.8	68	64.0	15.0	SSW	15.00	33.0	SW	71.6	76.8	73.1	29.929	0.00	0.00	0.000	0.429	84.3	37	55.2	84.0	1405	1	100.0	60
03/15/19	2:00 p	78.4	78.4	75.3	63	64.8	14.0	SSW	14.00	32.0	SSE	75.4	79.7	76.7	29.897	0.00	0.00	0.000	0.558	85.8	37	56.5	85.4	1405	1	100.0	60
03/15/19	3:00 p	79.4	79.5	78.4	61	64.8	14.0	SSW	14.00	32.0	WSW	76.5	80.7	77.8	29.880	0.00	0.00	0.000	0.600	87.1	37	57.7	86.7	1405	1	100.0	60
03/15/19	4:00 p	79.1	79.4	79.0	63	65.4	11.0	SSW	11.00	25.0	SW	77.1	80.6	78.6	29.860	0.00	0.00	0.000	0.587	87.5	37	58.0	87.0	1405	1	100.0	60
03/15/19	5:00 p	77.6	79.1	77.6	65	64.9	11.0	SW	11.00	23.0	WSW	75.4	79.0	76.8	29.858	0.00	0.00	0.000	0.525	87.6	37	58.1	87.1	1404	1	100.0	60
03/15/19	6:00 p	75.8	77.6	75.8	76	67.7	10.0	SSW	10.00	24.0	SW	73.9	78.2	76.3	29.867	0.01	0.00	0.000	0.450	87.5	37	58.0	87.0	1405	1	100.0	60
03/15/19	7:00 p	69.1	75.8	69.1	91	66.4	7.0	SSW	7.00	19.0	SSE	69.1	71.2	71.2	29.839	0.03	0.06	0.000	0.171	86.8	37	57.4	86.5	1405	1	100.0	60
03/15/19	8:00 p	67.4	69.1	67.4	94	65.6	6.0	S	6.00	14.0	SSW	67.4	69.1	69.1	29.827	0.01	0.00	0.000	0.100	86.3	37	57.0	86.0	1406	1	100.0	60
03/15/19	9:00 p	67.2	67.4	67.0	93	65.1	10.0	S	10.00	23.0	SSE	65.2	68.8	66.8	29.825	0.00	0.00	0.000	0.092	85.9	37	56.6	85.6	1404	1	100.0	60
03/15/19	10:00 p	68.3	68.3	67.2	89	64.9	11.0	SSW	11.00	22.0	SSE	65.7	70.1	67.5	29.826	0.00	0.00	0.000	0.138	85.5	37	56.3	85.1	1405	1	100.0	60
03/15/19	11:00 p	68.9	68.9	68.3	88	65.2	11.0	SSW	11.00	26.0	SW	66.3	70.8	68.2	29.847	0.00	0.00	0.000	0.163	85.1	37	55.9	84.7	1405	1	100.0	60
03/16/19	12:00 a	68.8	69.1	68.8	89	65.4	10.0	SSW	10.00	23.0	SW	66.7	70.7	68.6	29.843	0.00	0.00	0.000	0.158	84.8	37	55.6	84.4	1405	1	100.0	60
SATURDAY		Temp	Hi	Low	Out	Dew	Wind	Wind	Wind	Hi	Hi	Wind	Heat	THW			Rain	Heat	Cool	In 	In	In 	In 	Wind	Wind	ISS 	Arc.
Date		Time	Out	Temp	Temp	Hum	Pt.	Speed	Dir	Run	Speed	Dir	Chill	Index	Index	Bar  	Rain	Rate	D-D 	D-D 	Temp	Hum	Dew	Heat	Samp	Tx 	Recept	Int.
03/16/19	1:00 a	67.4	68.8	67.4	90	64.4	7.0	SW	7.00	18.0	WSW	67.4	69.0	69.0	29.845	0.00	0.00	0.000	0.100	84.5	37	55.4	84.1	1404	1	100.0	60
03/16/19	2:00 a	66.7	67.4	66.7	90	63.7	6.0	SW	6.00	21.0	SW	66.7	68.1	68.1	29.858	0.00	0.00	0.000	0.071	84.2	37	55.1	83.9	1405	1	100.0	60
03/16/19	3:00 a	66.0	66.6	66.0	85	61.4	7.0	WSW	7.00	21.0	W	66.0	67.0	67.0	29.881	0.00	0.00	0.000	0.042	83.7	37	54.7	83.2	1405	1	100.0	60
03/16/19	4:00 a	63.2	66.1	63.2	52	45.3	13.0	NW	13.00	31.0	WNW	58.9	61.5	57.2	29.924	0.00	0.00	0.075	0.000	83.3	37	54.3	82.6	1405	1	100.0	60
03/16/19	5:00 a	59.1	63.1	59.1	51	41.0	13.0	NW	13.00	27.0	NNW	54.2	57.2	52.3	29.959	0.00	0.00	0.246	0.000	82.5	37	53.6	81.6	1405	1	100.0	60
03/16/19	6:00 a	56.4	59.1	56.4	54	40.0	10.0	NW	10.00	20.0	WNW	52.8	54.7	51.1	30.001	0.00	0.00	0.358	0.000	81.6	37	52.8	80.4	1404	1	100.0	60
03/16/19	7:00 a	54.1	56.3	54.1	58	39.6	7.0	NW	7.00	19.0	NNW	52.1	52.8	50.8	30.031	0.00	0.00	0.454	0.000	80.7	37	52.0	79.4	1405	1	100.0	60
03/16/19	8:00 a	52.5	54.1	52.5	54	36.3	11.0	NW	11.00	21.0	NW	47.7	51.1	46.3	30.066	0.00	0.00	0.521	0.000	80.8	36	51.4	79.4	1405	1	100.0	60
03/16/19	9:00 a	52.9	53.3	52.5	50	34.8	13.0	NW	13.00	29.0	WNW	47.2	51.3	45.6	30.097	0.00	0.00	0.504	0.000	80.6	35	50.4	79.1	1405	1	100.0	60
03/16/19	10:00 a	52.8	53.0	52.7	50	34.7	14.0	NNW	14.00	27.0	NW	46.7	51.2	45.1	30.111	0.00	0.00	0.508	0.000	81.7	34	50.6	80.2	1405	1	100.0	60
03/16/19	11:00 a	53.3	53.3	52.5	48	34.1	14.0	NW	14.00	29.0	NW	47.3	51.6	45.6	30.118	0.00	0.00	0.488	0.000	82.2	33	50.2	80.7	1405	1	100.0	60
03/16/19	12:00 p	54.1	54.2	53.3	48	34.8	13.0	NNW	13.00	23.0	NW	48.5	52.3	46.7	30.123	0.00	0.00	0.454	0.000	83.0	33	50.9	81.5	1405	1	100.0	60
03/16/19	1:00 p	55.7	55.7	54.1	45	34.7	11.0	NNW	11.00	20.0	NNW	51.4	53.5	49.2	30.122	0.00	0.00	0.387	0.000	85.0	31	51.0	83.4	1405	1	100.0	60
03/16/19	2:00 p	57.1	57.1	55.6	42	34.2	10.0	NNW	10.00	18.0	WNW	53.6	54.7	51.2	30.107	0.00	0.00	0.329	0.000	85.4	32	52.2	84.0	1405	1	100.0	60
03/16/19	3:00 p	57.3	57.4	56.9	40	33.2	11.0	NW	11.00	20.0	NNW	53.2	54.8	50.7	30.085	0.00	0.00	0.321	0.000	86.1	32	52.8	84.8	1405	1	100.0	60
03/16/19	4:00 p	57.4	57.7	57.3	44	35.6	10.0	NW	10.00	18.0	NNW	53.9	55.1	51.6	30.081	0.00	0.00	0.317	0.000	87.7	31	53.3	85.8	1405	1	100.0	60
03/16/19	5:00 p	56.8	57.5	56.8	46	36.2	7.0	NNW	7.00	19.0	NNW	55.4	54.7	53.3	30.082	0.00	0.00	0.342	0.000	87.4	31	53.1	85.6	1405	1	100.0	60
03/16/19	6:00 p	56.5	56.8	56.5	44	34.8	6.0	NNW	6.00	14.0	NNW	55.4	54.2	53.1	30.093	0.00	0.00	0.354	0.000	86.1	31	51.9	84.6	1404	1	100.0	60
03/16/19	7:00 p	55.5	56.6	55.5	51	37.7	4.0	NW	4.00	11.0	S	55.2	53.7	53.4	30.114	0.00	0.00	0.396	0.000	85.4	31	51.3	83.8	1405	1	100.0	60
03/16/19	8:00 p	51.5	55.5	51.5	63	39.3	7.0	SSE	7.00	18.0	SSE	49.0	50.7	48.2	30.128	0.00	0.00	0.563	0.000	83.8	32	50.8	82.4	1406	1	100.0	60
03/16/19	9:00 p	48.7	51.5	48.7	70	39.4	10.0	SSE	10.00	15.0	SSE	43.8	48.3	43.4	30.148	0.00	0.00	0.679	0.000	83.3	32	50.4	81.7	1404	1	100.0	60
03/16/19	10:00 p	46.8	48.7	46.8	74	38.9	5.0	S	5.00	11.0	S	44.5	46.4	44.1	30.162	0.00	0.00	0.758	0.000	82.4	32	49.6	80.7	1405	1	100.0	60
03/16/19	11:00 p	45.0	46.8	45.0	78	38.6	5.0	S	5.00	11.0	SSE	42.3	44.7	42.0	30.164	0.00	0.00	0.833	0.000	82.2	32	49.4	80.5	1405	1	100.0	60
03/17/19	12:00 a	43.2	45.0	43.2	82	38.1	4.0	S	4.00	7.0	S	41.0	43.0	40.8	30.160	0.00	0.00	0.908	0.000	81.9	31	48.3	80.1	1405	1	100.0	60
SUNDAY			Temp	Hi	Low	Out	Dew	Wind	Wind	Wind	Hi	Hi	Wind	Heat	THW			Rain	Heat	Cool	In 	In	In 	In 	Wind	Wind	ISS 	Arc.
Date		Time	Out	Temp	Temp	Hum	Pt.	Speed	Dir	Run	Speed	Dir	Chill	Index	Index	Bar  	Rain	Rate	D-D 	D-D 	Temp	Hum	Dew	Heat	Samp	Tx 	Recept	Int.
03/17/19	1:00 a	42.7	43.2	41.9	88	39.4	4.0	ENE	4.00	16.0	ENE	40.4	42.6	40.3	30.182	0.00	0.00	0.929	0.000	80.9	31	47.4	79.0	1404	1	100.0	60
03/17/19	2:00 a	44.5	44.7	42.7	83	39.7	5.0	ENE	5.00	15.0	NW	41.8	44.4	41.7	30.172	0.00	0.00	0.854	0.000	79.4	31	46.1	77.6	1405	1	100.0	60
03/17/19	3:00 a	45.7	45.7	44.4	62	33.4	11.0	NE	11.00	20.0	ENE	39.8	44.9	39.0	30.189	0.00	0.00	0.804	0.000	79.0	31	45.8	77.3	1405	1	100.0	60
03/17/19	4:00 a	44.9	45.7	44.9	63	33.1	11.0	NE	11.00	20.0	NE	38.9	44.2	38.2	30.187	0.00	0.00	0.837	0.000	78.6	31	45.4	77.0	1404	1	100.0	60
03/17/19	5:00 a	44.5	44.9	44.3	57	30.2	10.0	NE	10.00	17.0	ENE	38.9	43.6	38.0	30.202	0.00	0.00	0.854	0.000	77.9	31	44.8	76.4	1405	1	100.0	60
03/17/19	6:00 a	43.8	44.5	43.8	57	29.5	7.0	NE	7.00	18.0	N	39.8	42.9	38.9	30.230	0.00	0.00	0.883	0.000	77.4	31	44.4	76.1	1405	1	100.0	60
03/17/19	7:00 a	43.2	43.8	43.1	60	30.2	6.0	NE	6.00	15.0	NE	39.5	42.4	38.7	30.251	0.00	0.00	0.908	0.000	77.4	30	43.5	76.0	1405	1	100.0	60
03/17/19	8:00 a	43.2	43.2	43.0	57	29.0	7.0	NE	7.00	17.0	NNE	39.0	42.3	38.1	30.267	0.00	0.00	0.908	0.000	78.9	29	43.9	77.0	1405	1	100.0	60
03/17/19	9:00 a	43.6	43.6	43.1	58	29.8	6.0	N	6.00	14.0	ENE	40.0	42.7	39.1	30.275	0.00	0.00	0.892	0.000	82.1	28	45.8	79.9	1405	1	100.0	60
03/17/19	10:00 a	45.9	45.9	43.6	57	31.5	6.0	ENE	6.00	17.0	NE	42.8	45.0	41.9	30.279	0.00	0.00	0.796	0.000	83.3	28	46.8	81.1	1405	1	100.0	60
03/17/19	11:00 a	47.2	47.2	45.9	61	34.4	7.0	ENE	7.00	18.0	E	43.8	46.4	43.0	30.274	0.00	0.00	0.742	0.000	84.0	28	47.4	82.0	1405	1	100.0	60
03/17/19	12:00 p	48.4	48.7	47.2	60	35.1	7.0	ENE	7.00	17.0	NE	45.3	47.6	44.5	30.264	0.00	0.00	0.692	0.000	84.1	28	47.5	82.1	1405	1	100.0	60
03/17/19	1:00 p	49.0	49.0	47.9	58	34.9	7.0	ENE	7.00	16.0	E	46.0	48.1	45.1	30.237	0.00	0.00	0.667	0.000	83.9	28	47.3	81.9	1405	1	100.0	60
03/17/19	2:00 p	49.8	49.8	49.0	57	35.2	7.0	NE	7.00	16.0	NNE	47.0	48.9	46.1	30.208	0.00	0.00	0.633	0.000	84.4	29	48.7	82.5	1405	1	100.0	60
03/17/19	3:00 p	50.0	50.2	49.8	56	34.9	7.0	ENE	7.00	15.0	ENE	47.2	49.0	46.2	30.174	0.00	0.00	0.625	0.000	84.6	28	47.9	82.5	1405	1	100.0	60
03/17/19	4:00 p	52.1	52.1	49.9	55	36.4	10.0	SE	10.00	19.0	SSE	47.7	50.9	46.5	30.157	0.00	0.00	0.538	0.000	88.3	27	50.1	85.6	1404	1	100.0	60
03/17/19	5:00 p	51.4	52.3	51.4	55	35.8	7.0	SSE	7.00	17.0	S	48.9	50.3	47.8	30.151	0.00	0.00	0.567	0.000	90.7	26	51.1	88.6	1405	1	100.0	60
03/17/19	6:00 p	50.6	51.4	50.5	55	35.0	7.0	SE	7.00	16.0	S	47.9	49.5	46.8	30.154	0.00	0.00	0.600	0.000	87.8	27	49.7	85.1	1406	1	100.0	60
03/17/19	7:00 p	50.2	50.6	50.1	57	35.5	6.0	SE	6.00	15.0	SE	47.9	49.3	47.0	30.168	0.00	0.00	0.617	0.000	86.3	28	49.4	84.2	1404	1	100.0	60
03/17/19	8:00 p	46.5	50.2	46.5	63	34.6	7.0	SSE	7.00	20.0	S	43.0	45.8	42.3	30.181	0.00	0.00	0.771	0.000	84.6	28	47.9	82.5	1405	1	100.0	60
03/17/19	9:00 p	43.2	46.5	43.2	69	33.7	5.0	SSE	5.00	12.0	SSE	40.2	42.6	39.6	30.187	0.00	0.00	0.908	0.000	83.7	28	47.1	81.6	1405	1	100.0	60
03/17/19	10:00 p	41.2	43.2	41.2	75	33.9	5.0	SSE	5.00	12.0	SSE	37.8	40.8	37.4	30.191	0.00	0.00	0.992	0.000	82.3	28	45.9	80.1	1405	1	100.0	60
03/17/19	11:00 p	40.1	41.2	40.1	78	33.8	5.0	SSE	5.00	11.0	SSE	36.6	39.7	36.2	30.191	0.00	0.00	1.038	0.000	80.9	28	44.7	78.7	1405	1	100.0	60
03/18/19	12:00 a	39.2	40.1	39.1	84	34.8	6.0	SSE	6.00	12.0	SE	34.8	39.0	34.6	30.187	0.00	0.00	1.075	0.000	80.2	29	45.1	78.1	1405	1	100.0	60
MONDAY			Temp	Hi	Low	Out	Dew	Wind	Wind	Wind	Hi	Hi	Wind	Heat	THW			Rain	Heat	Cool	In 	In	In 	In 	Wind	Wind	ISS 	Arc.
Date		Time	Out	Temp	Temp	Hum	Pt.	Speed	Dir	Run	Speed	Dir	Chill	Index	Index	Bar  	Rain	Rate	D-D 	D-D 	Temp	Hum	Dew	Heat	Samp	Tx 	Recept	Int.
03/18/19	1:00 a	39.1	39.2	39.1	85	35.0	6.0	SSE	6.00	13.0	S	34.7	38.9	34.5	30.182	0.00	0.00	1.079	0.000	79.5	29	44.5	77.5	1403	1	100.0	60
03/18/19	2:00 a	38.0	39.1	38.0	86	34.2	4.0	S	4.00	10.0	S	35.0	37.8	34.8	30.177	0.00	0.00	1.125	0.000	79.1	29	44.1	77.2	1405	1	100.0	60
03/18/19	3:00 a	36.4	38.1	36.4	87	32.9	0.0	---	0.00	0.0	---	36.4	36.2	36.2	30.171	0.00	0.00	1.192	0.000	78.6	29	43.7	76.8	1405	1	100.0	60
03/18/19	4:00 a	35.2	36.4	35.2	90	32.6	0.0	S	0.00	5.0	S	35.2	35.1	35.1	30.154	0.00	0.00	1.242	0.000	78.3	29	43.4	76.6	1405	1	100.0	60
03/18/19	5:00 a	34.3	35.2	34.3	91	31.9	0.0	S	0.00	5.0	S	34.3	34.1	34.1	30.148	0.00	0.00	1.279	0.000	78.6	28	42.8	76.7	1405	1	100.0	60
03/18/19	6:00 a	33.8	34.3	33.8	93	32.0	0.0	S	0.00	6.0	S	33.8	33.7	33.7	30.163	0.00	0.00	1.300	0.000	78.8	28	42.9	76.9	1405	1	100.0	60
03/18/19	7:00 a	33.9	34.0	33.7	94	32.4	0.0	S	0.00	5.0	S	33.9	33.8	33.8	30.184	0.00	0.00	1.296	0.000	78.7	28	42.8	76.8	1405	1	100.0	60
03/18/19	8:00 a	35.8	35.8	33.9	96	34.8	0.0	S	0.00	4.0	S	35.8	35.8	35.8	30.190	0.00	0.00	1.217	0.000	81.1	27	43.9	78.7	1405	1	100.0	60
03/18/19	9:00 a	40.9	40.9	35.8	96	39.8	4.0	SE	4.00	10.0	SSE	38.4	41.0	38.5	30.192	0.00	0.00	1.004	0.000	82.3	26	44.0	79.9	1405	1	100.0	60
03/18/19	10:00 a	48.3	48.3	40.9	69	38.6	6.0	E	6.00	17.0	SSE	45.7	47.8	45.2	30.196	0.00	0.00	0.696	0.000	83.4	26	44.9	81.0	1405	1	100.0	60
03/18/19	11:00 a	52.3	52.3	48.4	63	40.1	7.0	SE	7.00	17.0	ENE	50.0	51.4	49.1	30.193	0.00	0.00	0.529	0.000	82.8	27	45.4	80.5	1405	1	100.0	60
03/18/19	12:00 p	53.4	54.4	52.4	56	38.1	7.0	ENE	7.00	17.0	SSE	51.3	52.1	50.0	30.191	0.00	0.00	0.483	0.000	82.8	27	45.4	80.5	1405	1	100.0	60
03/18/19	1:00 p	54.3	54.3	53.3	54	38.0	10.0	ENE	10.00	19.0	ENE	50.3	52.8	48.8	30.175	0.00	0.00	0.446	0.000	83.3	28	46.8	81.1	1405	1	100.0	60
03/18/19	2:00 p	53.5	54.8	53.5	62	40.8	12.0	ENE	12.00	23.0	ENE	48.3	52.4	47.2	30.163	0.00	0.00	0.479	0.000	84.6	27	46.9	82.4	1404	1	100.0	60
03/18/19	3:00 p	49.7	53.4	49.7	68	39.6	14.0	ENE	14.00	28.0	ENE	43.2	49.2	42.7	30.165	0.00	0.00	0.637	0.000	83.8	27	46.2	81.6	1405	1	100.0	60
03/18/19	4:00 p	48.2	49.7	48.2	72	39.6	14.0	NE	14.00	28.0	ENE	41.4	47.8	41.0	30.171	0.00	0.00	0.700	0.000	83.7	27	46.2	81.5	1405	1	100.0	60
03/18/19	5:00 p	45.8	48.1	45.8	79	39.7	13.0	NE	13.00	25.0	ENE	39.1	45.6	38.9	30.189	0.02	0.10	0.800	0.000	83.4	26	44.9	81.0	1405	1	100.0	60
03/18/19	6:00 p	43.6	45.8	43.6	85	39.4	12.0	NE	12.00	24.0	NE	37.0	43.5	36.9	30.235	0.04	0.08	0.892	0.000	82.5	26	44.1	80.1	1405	1	100.0	60
03/18/19	7:00 p	42.2	43.6	42.2	91	39.8	10.0	NE	10.00	23.0	E	36.2	42.2	36.2	30.280	0.05	0.13	0.950	0.000	81.7	27	44.5	79.4	1405	1	100.0	60
03/18/19	8:00 p	42.6	42.6	42.2	90	39.9	11.0	NE	11.00	24.0	ENE	36.2	42.6	36.2	30.301	0.01	0.00	0.933	0.000	81.2	27	44.0	78.9	1405	1	100.0	60
03/18/19	9:00 p	41.7	42.6	41.6	90	39.0	12.0	NE	12.00	26.0	ENE	34.8	41.7	34.8	30.316	0.00	0.00	0.971	0.000	81.0	27	43.9	78.6	1405	1	100.0	60
03/18/19	10:00 p	41.1	41.7	41.0	89	38.1	6.0	ENE	6.00	17.0	E	37.0	41.0	36.9	30.324	0.00	0.00	0.996	0.000	81.0	27	43.9	78.6	1405	1	100.0	60
03/18/19	11:00 p	40.4	41.2	40.4	90	37.7	5.0	ENE	5.00	17.0	ENE	36.9	40.3	36.8	30.331	0.00	0.00	1.025	0.000	81.5	27	44.3	79.2	1405	1	100.0	60
03/19/19	12:00 a	39.6	40.4	39.6	92	37.5	5.0	NE	5.00	13.0	ENE	36.0	39.6	36.0	30.335	0.00	0.00	1.058	0.000	81.3	27	44.1	79.0	1404	1	100.0	60
TUESDAY			Temp	Hi	Low	Out	Dew	Wind	Wind	Wind	Hi	Hi	Wind	Heat	THW			Rain	Heat	Cool	In 	In	In 	In 	Wind	Wind	ISS 	Arc.
Date		Time	Out	Temp	Temp	Hum	Pt.	Speed	Dir	Run	Speed	Dir	Chill	Index	Index	Bar  	Rain	Rate	D-D 	D-D 	Temp	Hum	Dew	Heat	Samp	Tx 	Recept	Int.
03/19/19	1:00 a	38.5	39.6	38.5	94	36.9	4.0	N	4.00	6.0	N	35.6	38.5	35.6	30.343	0.00	0.00	1.104	0.000	80.5	27	43.4	78.2	1403	1	100.0	60
03/19/19	2:00 a	37.7	38.5	37.6	95	36.4	4.0	N	4.00	6.0	N	34.7	37.7	34.7	30.348	0.00	0.00	1.137	0.000	79.0	28	43.1	77.0	1405	1	100.0	60
03/19/19	3:00 a	38.2	38.4	37.6	95	36.9	4.0	NE	4.00	10.0	NE	35.2	38.2	35.2	30.348	0.00	0.00	1.117	0.000	78.7	28	42.8	76.8	1405	1	100.0	60
03/19/19	4:00 a	37.6	38.2	37.6	95	36.3	4.0	NNE	4.00	7.0	NNW	34.5	37.6	34.5	30.346	0.00	0.00	1.142	0.000	78.6	28	42.8	76.7	1405	1	100.0	60
03/19/19	5:00 a	37.9	38.1	37.5	94	36.3	4.0	NE	4.00	10.0	ENE	34.9	37.9	34.9	30.356	0.00	0.00	1.129	0.000	78.3	28	42.5	76.5	1405	1	100.0	60
03/19/19	6:00 a	37.2	37.9	37.2	93	35.4	4.0	NE	4.00	6.0	NE	34.1	37.2	34.1	30.377	0.00	0.00	1.158	0.000	78.0	28	42.2	76.3	1405	1	100.0	60
03/19/19	7:00 a	36.2	37.2	36.2	93	34.4	0.0	NE	0.00	6.0	NE	36.2	36.2	36.2	30.397	0.00	0.00	1.200	0.000	77.5	28	41.8	76.0	1405	1	100.0	60
03/19/19	8:00 a	36.8	36.8	35.6	96	35.8	4.0	NNW	4.00	10.0	NE	33.6	36.8	33.6	30.403	0.00	0.00	1.175	0.000	78.7	27	41.9	76.7	1405	1	100.0	60
03/19/19	9:00 a	42.7	42.7	36.8	82	37.6	7.0	NE	7.00	16.0	NE	38.4	42.5	38.2	30.410	0.00	0.00	0.929	0.000	81.2	26	43.0	78.7	1404	1	100.0	60
03/19/19	10:00 a	45.5	45.5	42.7	68	35.5	11.0	NE	11.00	21.0	NE	39.6	44.9	39.0	30.414	0.00	0.00	0.813	0.000	83.0	26	44.6	80.5	1405	1	100.0	60
03/19/19	11:00 a	46.9	46.9	45.5	61	34.1	12.0	NE	12.00	22.0	NE	40.8	46.1	40.0	30.429	0.00	0.00	0.754	0.000	83.0	26	44.6	80.5	1405	1	100.0	60
03/19/19	12:00 p	47.8	47.9	46.9	53	31.5	12.0	NE	12.00	24.0	ENE	41.8	46.7	40.7	30.439	0.00	0.00	0.717	0.000	82.5	26	44.1	80.1	1405	1	100.0	60
03/19/19	1:00 p	48.3	48.3	47.8	46	28.5	11.0	NE	11.00	23.0	NW	42.8	47.0	41.5	30.433	0.00	0.00	0.696	0.000	83.5	25	44.0	81.0	1405	1	100.0	60
03/19/19	2:00 p	48.8	48.9	48.2	40	25.5	11.0	ENE	11.00	20.0	ENE	43.4	47.3	41.9	30.415	0.00	0.00	0.675	0.000	83.6	26	45.1	81.2	1405	1	100.0	60
03/19/19	3:00 p	48.9	49.0	48.5	39	25.0	11.0	ENE	11.00	23.0	NE	43.5	47.4	42.0	30.380	0.00	0.00	0.671	0.000	84.6	25	44.9	82.0	1405	1	100.0	60
03/19/19	4:00 p	49.2	49.2	48.7	41	26.5	10.0	NE	10.00	19.0	NE	44.3	47.7	42.8	30.372	0.00	0.00	0.658	0.000	88.2	23	45.7	84.9	1405	1	100.0	60
03/19/19	5:00 p	48.8	49.2	48.7	43	27.3	11.0	NE	11.00	23.0	ENE	43.4	47.4	42.0	30.374	0.00	0.00	0.675	0.000	90.4	22	46.4	87.4	1405	1	100.0	60
03/19/19	6:00 p	48.0	48.8	48.0	41	25.4	11.0	NE	11.00	19.0	ENE	42.5	46.5	41.0	30.377	0.00	0.00	0.708	0.000	88.2	23	45.7	84.9	1405	1	100.0	60
03/19/19	7:00 p	46.9	48.0	46.9	47	27.7	10.0	NE	10.00	18.0	E	41.7	45.6	40.4	30.384	0.00	0.00	0.754	0.000	86.8	23	44.6	83.9	1405	1	100.0	60
03/19/19	8:00 p	45.0	46.9	45.0	52	28.4	5.0	NE	5.00	17.0	ENE	42.3	43.9	41.2	30.381	0.00	0.00	0.833	0.000	85.8	24	44.8	83.1	1405	1	100.0	60
03/19/19	9:00 p	43.2	45.0	43.2	62	31.1	4.0	E	4.00	7.0	ENE	41.0	42.4	40.2	30.392	0.00	0.00	0.908	0.000	85.7	24	44.7	83.0	1404	1	100.0	60
03/19/19	10:00 p	41.9	43.2	41.6	66	31.4	4.0	ENE	4.00	14.0	ENE	39.5	41.2	38.8	30.394	0.00	0.00	0.962	0.000	84.6	24	43.8	81.9	1405	1	100.0	60
03/19/19	11:00 p	42.3	42.4	41.9	67	32.1	5.0	ENE	5.00	11.0	E	39.2	41.6	38.5	30.389	0.00	0.00	0.946	0.000	83.7	24	43.1	81.1	1405	1	100.0	60
WEDNESDAY		Temp	Hi	Low	Out	Dew	Wind	Wind	Wind	Hi	Hi	Wind	Heat	THW			Rain	Heat	Cool	In 	In	In 	In 	Wind	Wind	ISS 	Arc.
Date		Time	Out	Temp	Temp	Hum	Pt.	Speed	Dir	Run	Speed	Dir	Chill	Index	Index	Bar  	Rain	Rate	D-D 	D-D 	Temp	Hum	Dew	Heat	Samp	Tx 	Recept	Int.
03/20/19	1:00 a	43.5	43.5	42.8	67	33.3	7.0	E	7.00	17.0	ENE	39.4	42.9	38.8	30.373	0.00	0.00	0.896	0.000	83.0	25	43.5	80.4	1404	1	100.0	60
03/20/19	2:00 a	43.1	43.5	43.1	68	33.3	6.0	ENE	6.00	14.0	NE	39.4	42.5	38.8	30.361	0.00	0.00	0.913	0.000	81.0	25	41.9	78.4	1405	1	100.0	60
03/20/19	3:00 a	43.1	43.1	43.0	66	32.5	10.0	ENE	10.00	18.0	ENE	37.2	42.4	36.5	30.344	0.00	0.00	0.913	0.000	80.4	25	41.3	77.9	1405	1	100.0	60
03/20/19	4:00 a	43.5	43.6	43.1	65	32.5	6.0	ENE	6.00	16.0	ENE	39.9	42.8	39.2	30.326	0.00	0.00	0.896	0.000	80.0	25	41.0	77.5	1405	1	100.0	60
03/20/19	5:00 a	44.1	44.1	43.5	62	31.9	7.0	ENE	7.00	17.0	NE	40.1	43.3	39.3	30.318	0.00	0.00	0.871	0.000	79.7	25	40.8	77.3	1405	1	100.0	60
03/20/19	6:00 a	44.8	44.8	44.1	63	33.0	10.0	ENE	10.00	17.0	NNE	39.3	44.1	38.6	30.310	0.00	0.00	0.842	0.000	79.7	25	40.8	77.3	1404	1	100.0	60
03/20/19	7:00 a	45.0	45.0	44.8	67	34.7	11.0	ENE	11.00	19.0	ENE	39.0	44.4	38.4	30.329	0.00	0.00	0.833	0.000	80.0	25	41.0	77.5	1406	1	100.0	60
03/20/19	8:00 a	45.3	45.3	45.0	70	36.1	11.0	ENE	11.00	20.0	ENE	39.4	44.8	38.9	30.325	0.00	0.00	0.821	0.000	79.9	25	40.9	77.4	1404	1	100.0	60
03/20/19	9:00 a	46.3	46.3	45.3	65	35.2	13.0	ENE	13.00	23.0	E	39.7	45.6	39.0	30.317	0.00	0.00	0.779	0.000	79.7	25	40.8	77.3	1405	1	100.0	60
03/20/19	10:00 a	47.6	47.6	46.3	63	35.6	13.0	ENE	13.00	21.0	NE	41.2	46.9	40.5	30.325	0.00	0.00	0.725	0.000	79.8	25	40.8	77.3	1405	1	100.0	60
03/20/19	11:00 a	48.6	48.6	47.6	65	37.4	13.0	ENE	13.00	21.0	NE	42.3	48.0	41.7	30.321	0.00	0.00	0.683	0.000	80.2	25	41.2	77.7	1405	1	100.0	60
03/20/19	12:00 p	49.6	49.7	48.6	69	39.8	12.0	NE	12.00	20.0	NE	43.9	49.2	43.5	30.315	0.00	0.00	0.642	0.000	79.7	26	41.8	77.4	1405	1	100.0	60
03/20/19	1:00 p	50.5	50.5	49.6	67	39.9	13.0	ENE	13.00	21.0	NNE	44.5	49.9	43.9	30.296	0.00	0.00	0.604	0.000	80.7	27	43.6	78.4	1405	1	100.0	60
03/20/19	2:00 p	49.7	50.8	49.7	72	41.0	12.0	NE	12.00	20.0	E	44.0	49.4	43.7	30.261	0.00	0.00	0.637	0.000	81.3	26	43.1	78.9	1405	1	100.0	60
03/20/19	3:00 p	50.2	50.2	49.3	74	42.2	12.0	NE	12.00	22.0	ENE	44.5	49.9	44.2	30.229	0.00	0.00	0.617	0.000	81.6	26	43.4	79.2	1405	1	100.0	60
03/20/19	4:00 p	49.2	50.5	49.2	83	44.3	11.0	ENE	11.00	20.0	NE	43.8	49.2	43.8	30.215	0.00	0.00	0.658	0.000	81.1	27	43.9	78.7	1405	1	100.0	60
03/20/19	5:00 p	48.5	49.3	48.5	87	44.8	11.0	NE	11.00	18.0	ENE	43.1	48.6	43.2	30.208	0.00	0.00	0.688	0.000	80.6	27	43.5	78.3	1405	1	100.0	60
03/20/19	6:00 p	47.5	48.6	47.5	90	44.7	11.0	NE	11.00	19.0	NE	41.9	47.7	42.1	30.190	0.00	0.00	0.729	0.000	82.7	27	45.3	80.4	1404	1	100.0	60
03/20/19	7:00 p	46.8	47.5	46.8	94	45.2	10.0	NE	10.00	18.0	ENE	41.6	47.1	41.9	30.184	0.01	0.00	0.758	0.000	83.3	26	44.8	80.9	1405	1	100.0	60
03/20/19	8:00 p	47.2	47.2	46.8	94	45.6	7.0	NE	7.00	17.0	NNE	43.8	47.5	44.1	30.174	0.00	0.00	0.742	0.000	81.6	27	44.4	79.3	1405	1	100.0	60
03/20/19	9:00 p	47.6	47.6	47.2	95	46.2	6.0	NE	6.00	14.0	ENE	44.8	48.0	45.2	30.172	0.01	0.00	0.725	0.000	80.8	27	43.7	78.5	1405	1	100.0	60
03/20/19	10:00 p	48.2	48.3	47.6	96	47.1	7.0	NE	7.00	15.0	ENE	45.0	48.7	45.5	30.159	0.00	0.00	0.700	0.000	80.2	27	43.2	77.9	1405	1	100.0	60
03/20/19	11:00 p	48.6	48.6	48.3	97	47.8	5.0	NE	5.00	14.0	NE	46.6	49.1	47.1	30.143	0.02	0.05	0.683	0.000	80.1	28	44.0	77.9	1405	1	100.0	60
THURSDAY		Temp	Hi	Low	Out	Dew	Wind	Wind	Wind	Hi	Hi	Wind	Heat	THW			Rain	Heat	Cool	In 	In	In 	In 	Wind	Wind	ISS 	Arc.
Date		Time	Out	Temp	Temp	Hum	Pt.	Speed	Dir	Run	Speed	Dir	Chill	Index	Index	Bar  	Rain	Rate	D-D 	D-D 	Temp	Hum	Dew	Heat	Samp	Tx 	Recept	Int.
03/21/19	1:00 a	49.5	49.5	49.1	98	49.0	6.0	NE	6.00	16.0	ENE	47.1	50.1	47.7	30.096	0.01	0.00	0.646	0.000	79.7	28	43.7	77.6	1404	1	100.0	60
03/21/19	2:00 a	50.0	50.0	49.5	99	49.7	6.0	ENE	6.00	13.0	ENE	47.7	50.7	48.4	30.058	0.01	0.00	0.625	0.000	78.8	29	43.8	77.0	1405	1	100.0	60
03/21/19	3:00 a	50.7	50.7	50.0	99	50.4	4.0	ENE	4.00	11.0	E	49.7	51.3	50.3	30.015	0.01	0.00	0.596	0.000	78.8	29	43.8	77.0	1405	1	100.0	60
03/21/19	4:00 a	51.7	51.7	50.7	99	51.4	4.0	SE	4.00	10.0	SSE	50.8	52.2	51.3	29.980	0.04	0.10	0.554	0.000	78.9	29	43.9	77.0	1405	1	100.0	60
03/21/19	5:00 a	53.3	53.3	51.7	100	53.3	6.0	SSE	6.00	12.0	SSE	51.6	53.7	52.0	29.953	0.04	0.07	0.488	0.000	79.2	29	44.2	77.3	1404	1	100.0	60
03/21/19	6:00 a	53.8	53.8	53.3	99	53.5	5.0	SSE	5.00	14.0	SSE	52.7	54.2	53.1	29.935	0.13	0.24	0.467	0.000	80.4	30	46.1	78.4	1405	1	100.0	60
03/21/19	7:00 a	54.2	54.3	53.8	99	53.9	6.0	SSE	6.00	17.0	ENE	52.6	54.6	53.0	29.911	0.09	0.35	0.450	0.000	82.3	29	46.9	80.3	1405	1	100.0	60
03/21/19	8:00 a	54.3	54.3	54.1	99	54.0	6.0	E	6.00	16.0	SSE	52.8	54.7	53.2	29.880	0.05	0.26	0.446	0.000	80.8	30	46.5	78.8	1405	1	100.0	60
03/21/19	9:00 a	55.1	55.1	54.3	100	55.1	7.0	SE	7.00	20.0	SE	53.3	55.5	53.7	29.847	0.08	0.77	0.413	0.000	79.9	31	46.6	78.0	1405	1	100.0	60
03/21/19	10:00 a	57.0	57.0	55.1	100	57.0	10.0	SE	10.00	20.0	SE	53.5	57.4	53.9	29.811	0.00	0.00	0.333	0.000	79.8	31	46.5	77.9	1405	1	100.0	60
03/21/19	11:00 a	57.5	57.5	57.0	98	56.9	14.0	SE	14.00	29.0	SSE	52.1	57.8	52.4	29.773	0.00	0.00	0.313	0.000	79.6	31	46.3	77.8	1405	1	100.0	60
03/21/19	12:00 p	59.8	59.8	57.5	91	57.2	15.0	SE	15.00	30.0	SSE	54.3	60.1	54.6	29.727	0.00	0.00	0.217	0.000	80.0	31	46.6	78.1	1405	1	100.0	60
03/21/19	1:00 p	62.4	62.6	59.9	79	55.8	18.0	SE	18.00	34.0	SSE	56.4	62.6	56.6	29.694	0.00	0.00	0.108	0.000	80.8	32	48.2	79.0	1405	1	100.0	60
03/21/19	2:00 p	58.6	62.5	58.6	91	56.0	15.0	SE	15.00	35.0	SSE	53.0	58.8	53.2	29.651	0.01	0.00	0.267	0.000	80.4	33	48.7	78.7	1405	1	100.0	60
03/21/19	3:00 p	59.9	59.9	58.3	94	58.2	13.0	S	13.00	24.0	SSE	55.2	60.3	55.6	29.599	0.00	0.00	0.212	0.000	81.6	32	48.9	79.9	1405	1	100.0	60
03/21/19	4:00 p	60.6	60.6	59.9	88	57.0	11.0	S	11.00	21.0	SSE	57.0	60.9	57.3	29.557	0.00	0.00	0.183	0.000	81.5	32	48.8	79.8	1405	1	100.0	60
03/21/19	5:00 p	59.6	61.2	59.6	88	56.0	11.0	SSW	11.00	25.0	SW	55.9	59.8	56.1	29.556	0.00	0.00	0.225	0.000	81.7	32	49.0	80.0	1405	1	100.0	60
03/21/19	6:00 p	52.0	59.5	52.0	93	50.0	11.0	WSW	11.00	26.0	WSW	47.1	52.3	47.4	29.584	0.00	0.00	0.542	0.000	80.9	33	49.1	79.2	1404	1	100.0	60
03/21/19	7:00 p	48.6	52.0	48.6	91	46.1	13.0	W	13.00	33.0	W	42.3	48.9	42.6	29.605	0.00	0.00	0.683	0.000	80.7	33	48.9	79.0	1405	1	100.0	60
03/21/19	8:00 p	48.1	48.6	48.0	91	45.6	12.0	W	12.00	34.0	WSW	42.1	48.3	42.3	29.609	0.00	0.00	0.704	0.000	80.4	32	47.8	78.6	1405	1	100.0	60
03/21/19	9:00 p	48.6	48.6	48.0	88	45.2	12.0	W	12.00	25.0	WSW	42.7	48.8	42.9	29.634	0.00	0.00	0.683	0.000	81.5	32	48.8	79.8	1405	1	100.0	60
03/21/19	10:00 p	48.9	48.9	48.6	87	45.2	12.0	W	12.00	27.0	WNW	43.1	49.1	43.3	29.638	0.00	0.00	0.671	0.000	81.5	32	48.8	79.8	1405	1	100.0	60
03/21/19	11:00 p	47.8	48.9	47.8	86	43.8	12.0	W	12.00	32.0	W	41.8	47.8	41.8	29.631	0.00	0.00	0.717	0.000	81.8	32	49.1	80.1	1405	1	100.0	60
03/22/19	12:00 a	46.9	47.8	46.9	86	42.9	10.0	W	10.00	20.0	NW	41.7	46.9	41.7	29.624	0.00	0.00	0.754	0.000	82.1	31	48.5	80.3	1405	1	100.0	60
FRIDAY			Temp	Hi	Low	Out	Dew	Wind	Wind	Wind	Hi	Hi	Wind	Heat	THW			Rain	Heat	Cool	In 	In	In 	In 	Wind	Wind	ISS 	Arc.
Date		Time	Out	Temp	Temp	Hum	Pt.	Speed	Dir	Run	Speed	Dir	Chill	Index	Index	Bar  	Rain	Rate	D-D 	D-D 	Temp	Hum	Dew	Heat	Samp	Tx 	Recept	Int.
03/22/19	1:00 a	47.5	47.5	46.7	82	42.3	10.0	W	10.00	23.0	WNW	42.4	47.4	42.3	29.623	0.00	0.00	0.729	0.000	81.4	31	47.9	79.5	1404	1	100.0	60
03/22/19	2:00 a	48.2	48.3	47.5	81	42.6	10.0	W	10.00	21.0	WNW	43.2	48.1	43.1	29.618	0.00	0.00	0.700	0.000	79.8	32	47.3	78.0	1405	1	100.0	60
03/22/19	3:00 a	47.4	48.1	47.4	85	43.1	6.0	W	6.00	17.0	WSW	44.6	47.4	44.6	29.611	0.00	0.00	0.733	0.000	78.7	32	46.4	77.2	1405	1	100.0	60
03/22/19	4:00 a	47.9	47.9	47.3	84	43.3	7.0	WSW	7.00	23.0	SW	44.7	47.9	44.7	29.605	0.00	0.00	0.712	0.000	78.7	32	46.4	77.2	1404	1	100.0	60
03/22/19	5:00 a	47.7	48.0	47.7	83	42.8	11.0	W	11.00	17.0	WSW	42.1	47.6	42.0	29.607	0.00	0.00	0.721	0.000	78.7	31	45.5	77.1	1405	1	100.0	60
03/22/19	6:00 a	46.9	47.7	46.8	82	41.7	7.0	W	7.00	19.0	W	43.5	46.8	43.4	29.618	0.00	0.00	0.754	0.000	78.8	31	45.6	77.1	1406	1	100.0	60
03/22/19	7:00 a	46.2	47.0	46.2	83	41.3	7.0	W	7.00	18.0	W	42.6	46.1	42.5	29.629	0.00	0.00	0.783	0.000	78.7	31	45.5	77.1	1404	1	100.0	60
03/22/19	8:00 a	46.6	46.6	46.0	83	41.7	7.0	WSW	7.00	19.0	WSW	43.1	46.5	43.0	29.647	0.00	0.00	0.767	0.000	79.2	31	45.9	77.5	1405	1	100.0	60
03/22/19	9:00 a	50.2	50.2	46.6	72	41.5	12.0	W	12.00	24.0	W	44.5	49.9	44.2	29.657	0.00	0.00	0.617	0.000	79.6	30	45.4	77.7	1405	1	100.0	60
03/22/19	10:00 a	52.5	52.5	50.1	66	41.5	13.0	W	13.00	24.0	W	46.8	51.7	46.0	29.661	0.00	0.00	0.521	0.000	79.9	30	45.7	77.9	1405	1	100.0	60
03/22/19	11:00 a	55.1	55.1	52.5	58	40.6	14.0	WNW	14.00	29.0	WNW	49.3	53.7	47.9	29.661	0.00	0.00	0.413	0.000	81.4	29	46.1	79.3	1405	1	100.0	60
03/22/19	12:00 p	56.6	56.6	55.1	55	40.6	15.0	WNW	15.00	32.0	WNW	50.7	55.0	49.1	29.670	0.00	0.00	0.350	0.000	81.7	29	46.3	79.6	1405	1	100.0	60
03/22/19	1:00 p	57.6	58.0	56.6	50	39.1	14.0	W	14.00	25.0	W	52.2	55.6	50.2	29.668	0.00	0.00	0.308	0.000	83.0	29	47.5	80.9	1405	1	100.0	60
03/22/19	2:00 p	58.9	59.4	57.5	46	38.1	13.0	WNW	13.00	27.0	SW	54.0	56.7	51.8	29.650	0.00	0.00	0.254	0.000	82.9	29	47.4	80.8	1405	1	100.0	60
03/22/19	3:00 p	59.9	59.9	58.9	45	38.5	12.0	W	12.00	26.0	SW	55.7	57.6	53.4	29.629	0.00	0.00	0.212	0.000	83.2	29	47.6	81.1	1405	1	100.0	60
03/22/19	4:00 p	58.8	59.9	58.8	46	38.1	14.0	W	14.00	28.0	W	53.6	56.6	51.4	29.630	0.00	0.00	0.258	0.000	83.7	29	48.1	81.8	1404	1	100.0	60
03/22/19	5:00 p	58.2	58.8	57.9	44	36.4	14.0	W	14.00	26.0	W	52.8	55.8	50.4	29.651	0.00	0.00	0.283	0.000	84.3	28	47.6	82.3	1405	1	100.0	60
03/22/19	6:00 p	57.4	58.2	57.3	44	35.6	14.0	W	14.00	34.0	WSW	51.9	55.1	49.6	29.668	0.00	0.00	0.317	0.000	83.8	29	48.1	81.9	1406	1	100.0	60
03/22/19	7:00 p	55.8	57.5	55.8	48	36.4	12.0	W	12.00	26.0	SSE	51.0	53.8	49.0	29.680	0.00	0.00	0.383	0.000	83.9	28	47.3	81.9	1404	1	100.0	60
03/22/19	8:00 p	46.7	55.8	46.7	83	41.8	15.0	WNW	15.00	44.0	NNW	39.4	46.6	39.3	29.781	0.01	0.00	0.762	0.000	82.7	28	46.3	80.5	1405	1	100.0	60
03/22/19	9:00 p	47.0	47.2	46.4	76	39.8	13.0	NW	13.00	25.0	NW	40.5	46.7	40.2	29.818	0.00	0.00	0.750	0.000	82.0	28	45.7	79.9	1405	1	100.0	60
03/22/19	10:00 p	46.4	47.0	46.4	69	36.8	12.0	WNW	12.00	29.0	W	40.2	45.9	39.7	29.856	0.00	0.00	0.775	0.000	81.5	29	46.2	79.4	1405	1	100.0	60
03/22/19	11:00 p	45.7	46.4	45.6	66	35.0	10.0	WNW	10.00	19.0	WNW	40.3	45.0	39.6	29.875	0.00	0.00	0.804	0.000	81.1	29	45.8	79.0	1405	1	100.0	60
SATURDAY		Temp	Hi	Low	Out	Dew	Wind	Wind	Wind	Hi	Hi	Wind	Heat	THW			Rain	Heat	Cool	In 	In	In 	In 	Wind	Wind	ISS 	Arc.
Date		Time	Out	Temp	Temp	Hum	Pt.	Speed	Dir	Run	Speed	Dir	Chill	Index	Index	Bar  	Rain	Rate	D-D 	D-D 	Temp	Hum	Dew	Heat	Samp	Tx 	Recept	Int.
03/23/19	12:00 a	45.1	45.7	45.1	64	33.6	10.0	WNW	10.00	19.0	WSW	39.6	44.4	38.9	29.907	0.00	0.00	0.829	0.000	80.7	29	45.5	78.6	1405	1	100.0	60
03/23/19	1:00 a	44.8	45.1	44.8	57	30.5	12.0	WNW	12.00	25.0	W	38.4	43.9	37.5	29.917	0.00	0.00	0.842	0.000	80.3	28	44.2	78.1	1404	1	100.0	60
03/23/19	2:00 a	44.0	44.9	44.0	58	30.2	12.0	W	12.00	23.0	WNW	37.4	43.1	36.5	29.917	0.00	0.00	0.875	0.000	78.4	28	42.6	76.6	1405	1	100.0	60
03/23/19	3:00 a	43.1	44.1	43.1	59	29.7	11.0	W	11.00	22.0	NW	36.8	42.3	36.0	29.925	0.00	0.00	0.913	0.000	78.0	28	42.2	76.3	1404	1	100.0	60
03/23/19	4:00 a	42.1	43.1	42.1	60	29.2	10.0	W	10.00	19.0	W	36.1	41.3	35.3	29.927	0.00	0.00	0.954	0.000	77.7	28	42.0	76.2	1406	1	100.0	60
03/23/19	5:00 a	41.8	42.2	41.7	60	28.9	10.0	W	10.00	20.0	WSW	35.8	41.0	35.0	29.956	0.00	0.00	0.967	0.000	77.4	28	41.7	76.0	1404	1	100.0	60
03/23/19	6:00 a	40.9	41.8	40.9	62	28.9	7.0	W	7.00	17.0	WSW	36.2	40.1	35.4	29.991	0.00	0.00	1.004	0.000	77.1	28	41.5	75.8	1405	1	100.0	60
03/23/19	7:00 a	40.0	40.9	40.0	64	28.8	7.0	W	7.00	16.0	W	35.1	39.3	34.4	30.018	0.00	0.00	1.042	0.000	76.8	28	41.2	75.5	1405	1	100.0	60
03/23/19	8:00 a	41.5	41.5	39.8	61	29.0	7.0	W	7.00	17.0	W	36.9	40.7	36.1	30.058	0.00	0.00	0.979	0.000	77.9	27	41.2	76.2	1405	1	100.0	60
03/23/19	9:00 a	44.0	44.0	41.5	56	29.3	11.0	W	11.00	22.0	W	37.8	43.0	36.8	30.089	0.00	0.00	0.875	0.000	78.9	27	42.1	76.8	1405	1	100.0	60

			Temp	Hi	Low	Out	Dew	Wind	Wind	Wind	Hi	Hi	Wind	Heat	THW			Rain	Heat	Cool	In 	In	In 	In 	Wind	Wind	ISS 	Arc.
Date		Time	Out	Temp	Temp	Hum	Pt.	Speed	Dir	Run	Speed	Dir	Chill	Index	Index	Bar  	Rain	Rate	D-D 	D-D 	Temp	Hum	Dew	Heat	Samp	Tx 	Recept	Int.
-----------------------------------------------------------------------------------------------------------------------------------------------------------------------------------